<?xml version="1.0" encoding="UTF-8" standalone="no" ?>
<gpx xmlns="http://www.topografix.com/GPX/1/1" xmlns:xsi="http://www.w3.org/2001/XMLSchema-instance" xsi:schemaLocation="http://www.topografix.com/GPX/1/1 http://www.topografix.com/GPX/1/1/gpx.xsd" version="1.1" creator="VisuGPX - https://www.visugpx.com">
  <metadata>
    <name>Puy de Pariou Avril 2019</name>
  </metadata>
  <trk>
    <name><![CDATA[Puy de Pariou 28 avr. 2019]]></name>
    <trkseg>
      <trkpt lat="45.80334" lon="2.98634">
        <ele>996.86540121462</ele>
        <time>2019-04-28T06:58:53Z</time>
      </trkpt>
      <trkpt lat="45.80337" lon="2.98617">
        <ele>992.83258364952</ele>
        <time>2019-04-28T06:59:03Z</time>
      </trkpt>
      <trkpt lat="45.80341" lon="2.98616">
        <ele>990.53305363077</ele>
        <time>2019-04-28T06:59:12Z</time>
      </trkpt>
      <trkpt lat="45.8034" lon="2.98608">
        <ele>990.78484769209</ele>
        <time>2019-04-28T06:59:21Z</time>
      </trkpt>
      <trkpt lat="45.80338" lon="2.98591">
        <ele>991.38885429796</ele>
        <time>2019-04-28T06:59:30Z</time>
      </trkpt>
      <trkpt lat="45.8034" lon="2.98582">
        <ele>991.57094870351</ele>
        <time>2019-04-28T06:59:39Z</time>
      </trkpt>
      <trkpt lat="45.80346" lon="2.98569">
        <ele>991.76752796995</ele>
        <time>2019-04-28T06:59:49Z</time>
      </trkpt>
      <trkpt lat="45.80349" lon="2.9856">
        <ele>991.97204368444</ele>
        <time>2019-04-28T06:59:58Z</time>
      </trkpt>
      <trkpt lat="45.80352" lon="2.98552">
        <ele>992.19349007098</ele>
        <time>2019-04-28T07:00:07Z</time>
      </trkpt>
      <trkpt lat="45.80357" lon="2.98542">
        <ele>992.42450991324</ele>
        <time>2019-04-28T07:00:16Z</time>
      </trkpt>
      <trkpt lat="45.80351" lon="2.98535">
        <ele>992.65879986807</ele>
        <time>2019-04-28T07:00:24Z</time>
      </trkpt>
      <trkpt lat="45.80347" lon="2.98532">
        <ele>992.84136243276</ele>
        <time>2019-04-28T07:00:33Z</time>
      </trkpt>
      <trkpt lat="45.80343" lon="2.98525">
        <ele>992.90297957991</ele>
        <time>2019-04-28T07:00:42Z</time>
      </trkpt>
      <trkpt lat="45.80338" lon="2.98513">
        <ele>992.87058164879</ele>
        <time>2019-04-28T07:00:51Z</time>
      </trkpt>
      <trkpt lat="45.80335" lon="2.98504">
        <ele>992.80553968302</ele>
        <time>2019-04-28T07:01:00Z</time>
      </trkpt>
      <trkpt lat="45.80328" lon="2.98502">
        <ele>992.60347961711</ele>
        <time>2019-04-28T07:01:10Z</time>
      </trkpt>
      <trkpt lat="45.80316" lon="2.98494">
        <ele>992.41629477582</ele>
        <time>2019-04-28T07:01:18Z</time>
      </trkpt>
      <trkpt lat="45.80304" lon="2.98484">
        <ele>992.22718669114</ele>
        <time>2019-04-28T07:01:27Z</time>
      </trkpt>
      <trkpt lat="45.80302" lon="2.98476">
        <ele>992.13351607458</ele>
        <time>2019-04-28T07:01:36Z</time>
      </trkpt>
      <trkpt lat="45.80306" lon="2.98466">
        <ele>992.06959337396</ele>
        <time>2019-04-28T07:01:45Z</time>
      </trkpt>
      <trkpt lat="45.8031" lon="2.98461">
        <ele>992.03319651296</ele>
        <time>2019-04-28T07:01:55Z</time>
      </trkpt>
      <trkpt lat="45.80318" lon="2.98455">
        <ele>992.00257464684</ele>
        <time>2019-04-28T07:02:03Z</time>
      </trkpt>
      <trkpt lat="45.80331" lon="2.9846">
        <ele>991.95018645255</ele>
        <time>2019-04-28T07:02:12Z</time>
      </trkpt>
      <trkpt lat="45.8034" lon="2.98458">
        <ele>991.89085929837</ele>
        <time>2019-04-28T07:02:20Z</time>
      </trkpt>
      <trkpt lat="45.80348" lon="2.98451">
        <ele>991.83667428703</ele>
        <time>2019-04-28T07:02:29Z</time>
      </trkpt>
      <trkpt lat="45.80352" lon="2.98443">
        <ele>991.78243736727</ele>
        <time>2019-04-28T07:02:38Z</time>
      </trkpt>
      <trkpt lat="45.80359" lon="2.98428">
        <ele>991.73903163446</ele>
        <time>2019-04-28T07:02:47Z</time>
      </trkpt>
      <trkpt lat="45.80367" lon="2.98416">
        <ele>991.71008926562</ele>
        <time>2019-04-28T07:02:56Z</time>
      </trkpt>
      <trkpt lat="45.80372" lon="2.98406">
        <ele>991.71007756012</ele>
        <time>2019-04-28T07:03:05Z</time>
      </trkpt>
      <trkpt lat="45.80375" lon="2.98396">
        <ele>991.73902192047</ele>
        <time>2019-04-28T07:03:14Z</time>
      </trkpt>
      <trkpt lat="45.80377" lon="2.98389">
        <ele>991.77176354219</ele>
        <time>2019-04-28T07:03:23Z</time>
      </trkpt>
      <trkpt lat="45.80376" lon="2.98382">
        <ele>991.7967847925</ele>
        <time>2019-04-28T07:03:32Z</time>
      </trkpt>
      <trkpt lat="45.80368" lon="2.98372">
        <ele>991.78192082806</ele>
        <time>2019-04-28T07:03:41Z</time>
      </trkpt>
      <trkpt lat="45.80362" lon="2.98367">
        <ele>991.77196972224</ele>
        <time>2019-04-28T07:03:49Z</time>
      </trkpt>
      <trkpt lat="45.80356" lon="2.98362">
        <ele>991.77771453073</ele>
        <time>2019-04-28T07:03:59Z</time>
      </trkpt>
      <trkpt lat="45.80343" lon="2.98343">
        <ele>991.77476318495</ele>
        <time>2019-04-28T07:04:08Z</time>
      </trkpt>
      <trkpt lat="45.80344" lon="2.98332">
        <ele>991.78061965762</ele>
        <time>2019-04-28T07:04:16Z</time>
      </trkpt>
      <trkpt lat="45.80345" lon="2.98322">
        <ele>991.83625683047</ele>
        <time>2019-04-28T07:04:25Z</time>
      </trkpt>
      <trkpt lat="45.80344" lon="2.9832">
        <ele>991.93880713562</ele>
        <time>2019-04-28T07:04:33Z</time>
      </trkpt>
      <trkpt lat="45.80344" lon="2.98316">
        <ele>992.04390046024</ele>
        <time>2019-04-28T07:04:43Z</time>
      </trkpt>
      <trkpt lat="45.80348" lon="2.98303">
        <ele>992.13153826971</ele>
        <time>2019-04-28T07:04:52Z</time>
      </trkpt>
      <trkpt lat="45.80347" lon="2.9828">
        <ele>992.18427075936</ele>
        <time>2019-04-28T07:05:01Z</time>
      </trkpt>
      <trkpt lat="45.8035" lon="2.98273">
        <ele>992.22277206957</ele>
        <time>2019-04-28T07:05:09Z</time>
      </trkpt>
      <trkpt lat="45.80354" lon="2.98261">
        <ele>992.25897389022</ele>
        <time>2019-04-28T07:05:18Z</time>
      </trkpt>
      <trkpt lat="45.8036" lon="2.98254">
        <ele>992.28364380585</ele>
        <time>2019-04-28T07:05:27Z</time>
      </trkpt>
      <trkpt lat="45.80367" lon="2.98245">
        <ele>992.3210314097</ele>
        <time>2019-04-28T07:05:36Z</time>
      </trkpt>
      <trkpt lat="45.8037" lon="2.98236">
        <ele>992.36695504659</ele>
        <time>2019-04-28T07:05:45Z</time>
      </trkpt>
      <trkpt lat="45.80373" lon="2.98223">
        <ele>992.45542745962</ele>
        <time>2019-04-28T07:05:55Z</time>
      </trkpt>
      <trkpt lat="45.80375" lon="2.98206">
        <ele>992.54918729699</ele>
        <time>2019-04-28T07:06:04Z</time>
      </trkpt>
      <trkpt lat="45.80373" lon="2.98191">
        <ele>992.65757826675</ele>
        <time>2019-04-28T07:06:14Z</time>
      </trkpt>
      <trkpt lat="45.80372" lon="2.98177">
        <ele>992.77945810768</ele>
        <time>2019-04-28T07:06:23Z</time>
      </trkpt>
      <trkpt lat="45.80374" lon="2.98168">
        <ele>992.86390606909</ele>
        <time>2019-04-28T07:06:31Z</time>
      </trkpt>
      <trkpt lat="45.80378" lon="2.98154">
        <ele>992.97273500842</ele>
        <time>2019-04-28T07:06:40Z</time>
      </trkpt>
      <trkpt lat="45.80378" lon="2.98146">
        <ele>993.07074622462</ele>
        <time>2019-04-28T07:06:49Z</time>
      </trkpt>
      <trkpt lat="45.8038" lon="2.98136">
        <ele>993.17586919842</ele>
        <time>2019-04-28T07:06:58Z</time>
      </trkpt>
      <trkpt lat="45.80382" lon="2.98123">
        <ele>993.27395847781</ele>
        <time>2019-04-28T07:07:07Z</time>
      </trkpt>
      <trkpt lat="45.80383" lon="2.98115">
        <ele>993.38973174853</ele>
        <time>2019-04-28T07:07:17Z</time>
      </trkpt>
      <trkpt lat="45.80387" lon="2.98101">
        <ele>993.4807418657</ele>
        <time>2019-04-28T07:07:27Z</time>
      </trkpt>
      <trkpt lat="45.80392" lon="2.98088">
        <ele>993.5996583779</ele>
        <time>2019-04-28T07:07:35Z</time>
      </trkpt>
      <trkpt lat="45.804" lon="2.98065">
        <ele>993.76441728558</ele>
        <time>2019-04-28T07:07:45Z</time>
      </trkpt>
      <trkpt lat="45.80404" lon="2.9805">
        <ele>993.95350615773</ele>
        <time>2019-04-28T07:07:55Z</time>
      </trkpt>
      <trkpt lat="45.80407" lon="2.98043">
        <ele>994.1108689411</ele>
        <time>2019-04-28T07:08:04Z</time>
      </trkpt>
      <trkpt lat="45.80412" lon="2.98032">
        <ele>994.3018052356</ele>
        <time>2019-04-28T07:08:14Z</time>
      </trkpt>
      <trkpt lat="45.80418" lon="2.98018">
        <ele>994.53702720296</ele>
        <time>2019-04-28T07:08:24Z</time>
      </trkpt>
      <trkpt lat="45.80422" lon="2.98007">
        <ele>994.73019894221</ele>
        <time>2019-04-28T07:08:32Z</time>
      </trkpt>
      <trkpt lat="45.80427" lon="2.97992">
        <ele>994.99048110133</ele>
        <time>2019-04-28T07:08:42Z</time>
      </trkpt>
      <trkpt lat="45.80429" lon="2.97977">
        <ele>995.25471841762</ele>
        <time>2019-04-28T07:08:51Z</time>
      </trkpt>
      <trkpt lat="45.80432" lon="2.97962">
        <ele>995.51306517325</ele>
        <time>2019-04-28T07:09:00Z</time>
      </trkpt>
      <trkpt lat="45.80436" lon="2.97945">
        <ele>995.81740981266</ele>
        <time>2019-04-28T07:09:10Z</time>
      </trkpt>
      <trkpt lat="45.80439" lon="2.97932">
        <ele>996.0962661362</ele>
        <time>2019-04-28T07:09:19Z</time>
      </trkpt>
      <trkpt lat="45.80441" lon="2.97927">
        <ele>996.2952130061</ele>
        <time>2019-04-28T07:09:28Z</time>
      </trkpt>
      <trkpt lat="45.80441" lon="2.97928">
        <ele>996.73938540128</ele>
        <time>2019-04-28T07:09:57Z</time>
      </trkpt>
      <trkpt lat="45.80444" lon="2.97928">
        <ele>996.77695254266</ele>
        <time>2019-04-28T07:10:06Z</time>
      </trkpt>
      <trkpt lat="45.80447" lon="2.97927">
        <ele>997.09212244377</ele>
        <time>2019-04-28T07:10:16Z</time>
      </trkpt>
      <trkpt lat="45.80446" lon="2.97927">
        <ele>998.21489765669</ele>
        <time>2019-04-28T07:11:05Z</time>
      </trkpt>
      <trkpt lat="45.80444" lon="2.97929">
        <ele>998.40659694376</ele>
        <time>2019-04-28T07:11:14Z</time>
      </trkpt>
      <trkpt lat="45.80444" lon="2.97927">
        <ele>998.57126641417</ele>
        <time>2019-04-28T07:11:24Z</time>
      </trkpt>
      <trkpt lat="45.80444" lon="2.97926">
        <ele>998.8483905512</ele>
        <time>2019-04-28T07:11:49Z</time>
      </trkpt>
      <trkpt lat="45.80443" lon="2.97925">
        <ele>999.04086654102</ele>
        <time>2019-04-28T07:11:58Z</time>
      </trkpt>
      <trkpt lat="45.80443" lon="2.97926">
        <ele>999.31025156296</ele>
        <time>2019-04-28T07:12:25Z</time>
      </trkpt>
      <trkpt lat="45.80442" lon="2.97927">
        <ele>999.71309912091</ele>
        <time>2019-04-28T07:12:34Z</time>
      </trkpt>
      <trkpt lat="45.80442" lon="2.97928">
        <ele>999.78672865919</ele>
        <time>2019-04-28T07:12:44Z</time>
      </trkpt>
      <trkpt lat="45.80442" lon="2.97925">
        <ele>1000.2007188885</ele>
        <time>2019-04-28T07:12:54Z</time>
      </trkpt>
      <trkpt lat="45.80443" lon="2.97924">
        <ele>1000.3922418283</ele>
        <time>2019-04-28T07:13:03Z</time>
      </trkpt>
      <trkpt lat="45.80441" lon="2.97928">
        <ele>1000.5212759109</ele>
        <time>2019-04-28T07:13:12Z</time>
      </trkpt>
      <trkpt lat="45.8044" lon="2.97927">
        <ele>1000.7999624518</ele>
        <time>2019-04-28T07:13:47Z</time>
      </trkpt>
      <trkpt lat="45.8044" lon="2.97926">
        <ele>1001.0419344791</ele>
        <time>2019-04-28T07:14:13Z</time>
      </trkpt>
      <trkpt lat="45.8044" lon="2.97925">
        <ele>1001.6508869519</ele>
        <time>2019-04-28T07:14:40Z</time>
      </trkpt>
      <trkpt lat="45.80438" lon="2.97923">
        <ele>1001.9651514523</ele>
        <time>2019-04-28T07:14:48Z</time>
      </trkpt>
      <trkpt lat="45.80439" lon="2.97924">
        <ele>1002.2855956988</ele>
        <time>2019-04-28T07:14:58Z</time>
      </trkpt>
      <trkpt lat="45.8044" lon="2.97916">
        <ele>1002.943047676</ele>
        <time>2019-04-28T07:15:07Z</time>
      </trkpt>
      <trkpt lat="45.80443" lon="2.97905">
        <ele>1003.6061121547</ele>
        <time>2019-04-28T07:15:16Z</time>
      </trkpt>
      <trkpt lat="45.80444" lon="2.97895">
        <ele>1004.1585118235</ele>
        <time>2019-04-28T07:15:26Z</time>
      </trkpt>
      <trkpt lat="45.80446" lon="2.9788">
        <ele>1004.6587011697</ele>
        <time>2019-04-28T07:15:35Z</time>
      </trkpt>
      <trkpt lat="45.80446" lon="2.97866">
        <ele>1005.1153689093</ele>
        <time>2019-04-28T07:15:43Z</time>
      </trkpt>
      <trkpt lat="45.80447" lon="2.97849">
        <ele>1005.5946139615</ele>
        <time>2019-04-28T07:15:52Z</time>
      </trkpt>
      <trkpt lat="45.80448" lon="2.97836">
        <ele>1005.9910549223</ele>
        <time>2019-04-28T07:16:00Z</time>
      </trkpt>
      <trkpt lat="45.80448" lon="2.97818">
        <ele>1006.4059231825</ele>
        <time>2019-04-28T07:16:09Z</time>
      </trkpt>
      <trkpt lat="45.80449" lon="2.97807">
        <ele>1006.7558508751</ele>
        <time>2019-04-28T07:16:17Z</time>
      </trkpt>
      <trkpt lat="45.80447" lon="2.97789">
        <ele>1007.1701811265</ele>
        <time>2019-04-28T07:16:27Z</time>
      </trkpt>
      <trkpt lat="45.80448" lon="2.97773">
        <ele>1007.5351306778</ele>
        <time>2019-04-28T07:16:36Z</time>
      </trkpt>
      <trkpt lat="45.80446" lon="2.97758">
        <ele>1007.8573732683</ele>
        <time>2019-04-28T07:16:44Z</time>
      </trkpt>
      <trkpt lat="45.80446" lon="2.97744">
        <ele>1008.2521403332</ele>
        <time>2019-04-28T07:16:54Z</time>
      </trkpt>
      <trkpt lat="45.80449" lon="2.97732">
        <ele>1008.5923766152</ele>
        <time>2019-04-28T07:17:03Z</time>
      </trkpt>
      <trkpt lat="45.80451" lon="2.9772">
        <ele>1008.9244901336</ele>
        <time>2019-04-28T07:17:12Z</time>
      </trkpt>
      <trkpt lat="45.80454" lon="2.97704">
        <ele>1009.3018866873</ele>
        <time>2019-04-28T07:17:22Z</time>
      </trkpt>
      <trkpt lat="45.80456" lon="2.9769">
        <ele>1009.622011754</ele>
        <time>2019-04-28T07:17:31Z</time>
      </trkpt>
      <trkpt lat="45.80456" lon="2.97674">
        <ele>1009.9720455843</ele>
        <time>2019-04-28T07:17:40Z</time>
      </trkpt>
      <trkpt lat="45.80455" lon="2.97663">
        <ele>1010.3119035062</ele>
        <time>2019-04-28T07:17:50Z</time>
      </trkpt>
      <trkpt lat="45.80455" lon="2.97653">
        <ele>1010.5922806824</ele>
        <time>2019-04-28T07:18:00Z</time>
      </trkpt>
      <trkpt lat="45.80455" lon="2.97638">
        <ele>1010.8383763765</ele>
        <time>2019-04-28T07:18:09Z</time>
      </trkpt>
      <trkpt lat="45.80452" lon="2.97617">
        <ele>1011.0643638283</ele>
        <time>2019-04-28T07:18:18Z</time>
      </trkpt>
      <trkpt lat="45.80456" lon="2.97601">
        <ele>1011.313480008</ele>
        <time>2019-04-28T07:18:28Z</time>
      </trkpt>
      <trkpt lat="45.80458" lon="2.97588">
        <ele>1011.5493384631</ele>
        <time>2019-04-28T07:18:37Z</time>
      </trkpt>
      <trkpt lat="45.80458" lon="2.97572">
        <ele>1011.8044280271</ele>
        <time>2019-04-28T07:18:46Z</time>
      </trkpt>
      <trkpt lat="45.80454" lon="2.97555">
        <ele>1012.0778229206</ele>
        <time>2019-04-28T07:18:55Z</time>
      </trkpt>
      <trkpt lat="45.80451" lon="2.9754">
        <ele>1012.3693666178</ele>
        <time>2019-04-28T07:19:04Z</time>
      </trkpt>
      <trkpt lat="45.80449" lon="2.97532">
        <ele>1012.6842495804</ele>
        <time>2019-04-28T07:19:14Z</time>
      </trkpt>
      <trkpt lat="45.80447" lon="2.97531">
        <ele>1012.8685647569</ele>
        <time>2019-04-28T07:19:23Z</time>
      </trkpt>
      <trkpt lat="45.80445" lon="2.97529">
        <ele>1012.9684660165</ele>
        <time>2019-04-28T07:19:33Z</time>
      </trkpt>
      <trkpt lat="45.80446" lon="2.97529">
        <ele>1013.0652272727</ele>
        <time>2019-04-28T07:19:42Z</time>
      </trkpt>
      <trkpt lat="45.80448" lon="2.97525">
        <ele>1013.2635989926</ele>
        <time>2019-04-28T07:19:52Z</time>
      </trkpt>
      <trkpt lat="45.80448" lon="2.97527">
        <ele>1013.4011416387</ele>
        <time>2019-04-28T07:20:01Z</time>
      </trkpt>
      <trkpt lat="45.80442" lon="2.97524">
        <ele>1013.5917163372</ele>
        <time>2019-04-28T07:20:10Z</time>
      </trkpt>
      <trkpt lat="45.80435" lon="2.9752">
        <ele>1013.7780917055</ele>
        <time>2019-04-28T07:20:19Z</time>
      </trkpt>
      <trkpt lat="45.80427" lon="2.97511">
        <ele>1013.9707271565</ele>
        <time>2019-04-28T07:20:29Z</time>
      </trkpt>
      <trkpt lat="45.80416" lon="2.97496">
        <ele>1014.1329295542</ele>
        <time>2019-04-28T07:20:38Z</time>
      </trkpt>
      <trkpt lat="45.80407" lon="2.9749">
        <ele>1014.2881391961</ele>
        <time>2019-04-28T07:20:47Z</time>
      </trkpt>
      <trkpt lat="45.80396" lon="2.97486">
        <ele>1014.4001070396</ele>
        <time>2019-04-28T07:20:56Z</time>
      </trkpt>
      <trkpt lat="45.80384" lon="2.97482">
        <ele>1014.5229251414</ele>
        <time>2019-04-28T07:21:05Z</time>
      </trkpt>
      <trkpt lat="45.80375" lon="2.97476">
        <ele>1014.6315549135</ele>
        <time>2019-04-28T07:21:13Z</time>
      </trkpt>
      <trkpt lat="45.80367" lon="2.97469">
        <ele>1014.7648151629</ele>
        <time>2019-04-28T07:21:22Z</time>
      </trkpt>
      <trkpt lat="45.80361" lon="2.97462">
        <ele>1014.8889417546</ele>
        <time>2019-04-28T07:21:31Z</time>
      </trkpt>
      <trkpt lat="45.80353" lon="2.97456">
        <ele>1015.0457247947</ele>
        <time>2019-04-28T07:21:41Z</time>
      </trkpt>
      <trkpt lat="45.80339" lon="2.97454">
        <ele>1015.1764653535</ele>
        <time>2019-04-28T07:21:50Z</time>
      </trkpt>
      <trkpt lat="45.80329" lon="2.97455">
        <ele>1015.2888644619</ele>
        <time>2019-04-28T07:21:59Z</time>
      </trkpt>
      <trkpt lat="45.80319" lon="2.97456">
        <ele>1015.4016642173</ele>
        <time>2019-04-28T07:22:09Z</time>
      </trkpt>
      <trkpt lat="45.80305" lon="2.97449">
        <ele>1015.4901219614</ele>
        <time>2019-04-28T07:22:18Z</time>
      </trkpt>
      <trkpt lat="45.80293" lon="2.97442">
        <ele>1015.6001856111</ele>
        <time>2019-04-28T07:22:28Z</time>
      </trkpt>
      <trkpt lat="45.80287" lon="2.97437">
        <ele>1015.6981425916</ele>
        <time>2019-04-28T07:22:37Z</time>
      </trkpt>
      <trkpt lat="45.80282" lon="2.97432">
        <ele>1015.7816047623</ele>
        <time>2019-04-28T07:22:46Z</time>
      </trkpt>
      <trkpt lat="45.80275" lon="2.97426">
        <ele>1015.8843622795</ele>
        <time>2019-04-28T07:22:55Z</time>
      </trkpt>
      <trkpt lat="45.80264" lon="2.97418">
        <ele>1016.0114996301</ele>
        <time>2019-04-28T07:23:05Z</time>
      </trkpt>
      <trkpt lat="45.80257" lon="2.97416">
        <ele>1016.1010626997</ele>
        <time>2019-04-28T07:23:14Z</time>
      </trkpt>
      <trkpt lat="45.80247" lon="2.97416">
        <ele>1016.1215631994</ele>
        <time>2019-04-28T07:23:23Z</time>
      </trkpt>
      <trkpt lat="45.80235" lon="2.97411">
        <ele>1016.1415881419</ele>
        <time>2019-04-28T07:23:32Z</time>
      </trkpt>
      <trkpt lat="45.80222" lon="2.97407">
        <ele>1016.0868985537</ele>
        <time>2019-04-28T07:23:41Z</time>
      </trkpt>
      <trkpt lat="45.80213" lon="2.97403">
        <ele>1016.0260843691</ele>
        <time>2019-04-28T07:23:50Z</time>
      </trkpt>
      <trkpt lat="45.80204" lon="2.97407">
        <ele>1015.9817443116</ele>
        <time>2019-04-28T07:23:59Z</time>
      </trkpt>
      <trkpt lat="45.80194" lon="2.97411">
        <ele>1016.0252459127</ele>
        <time>2019-04-28T07:24:09Z</time>
      </trkpt>
      <trkpt lat="45.80185" lon="2.97415">
        <ele>1016.2342008599</ele>
        <time>2019-04-28T07:24:17Z</time>
      </trkpt>
      <trkpt lat="45.80175" lon="2.97421">
        <ele>1016.2006554973</ele>
        <time>2019-04-28T07:24:26Z</time>
      </trkpt>
      <trkpt lat="45.80169" lon="2.97422">
        <ele>1016.5717429905</ele>
        <time>2019-04-28T07:24:35Z</time>
      </trkpt>
      <trkpt lat="45.80163" lon="2.97422">
        <ele>1017.1707563974</ele>
        <time>2019-04-28T07:24:43Z</time>
      </trkpt>
      <trkpt lat="45.80154" lon="2.97425">
        <ele>1018.0550405375</ele>
        <time>2019-04-28T07:24:52Z</time>
      </trkpt>
      <trkpt lat="45.80143" lon="2.97431">
        <ele>1019.0177471328</ele>
        <time>2019-04-28T07:25:01Z</time>
      </trkpt>
      <trkpt lat="45.80137" lon="2.97439">
        <ele>1020.1263801093</ele>
        <time>2019-04-28T07:25:10Z</time>
      </trkpt>
      <trkpt lat="45.8013" lon="2.97442">
        <ele>1021.8187395766</ele>
        <time>2019-04-28T07:25:19Z</time>
      </trkpt>
      <trkpt lat="45.80122" lon="2.97444">
        <ele>1023.9077593798</ele>
        <time>2019-04-28T07:25:28Z</time>
      </trkpt>
      <trkpt lat="45.80118" lon="2.97437">
        <ele>1026.0661324679</ele>
        <time>2019-04-28T07:25:37Z</time>
      </trkpt>
      <trkpt lat="45.80117" lon="2.97435">
        <ele>1027.0476489463</ele>
        <time>2019-04-28T07:25:46Z</time>
      </trkpt>
      <trkpt lat="45.80117" lon="2.97436">
        <ele>1027.6604209291</ele>
        <time>2019-04-28T07:26:07Z</time>
      </trkpt>
      <trkpt lat="45.80116" lon="2.97435">
        <ele>1029.4383917131</ele>
        <time>2019-04-28T07:26:17Z</time>
      </trkpt>
      <trkpt lat="45.80112" lon="2.97424">
        <ele>1032.3683401087</ele>
        <time>2019-04-28T07:26:26Z</time>
      </trkpt>
      <trkpt lat="45.80106" lon="2.97416">
        <ele>1035.2264362972</ele>
        <time>2019-04-28T07:26:36Z</time>
      </trkpt>
      <trkpt lat="45.80099" lon="2.97414">
        <ele>1037.8434340724</ele>
        <time>2019-04-28T07:26:46Z</time>
      </trkpt>
      <trkpt lat="45.80095" lon="2.97419">
        <ele>1040.1419236244</ele>
        <time>2019-04-28T07:26:56Z</time>
      </trkpt>
      <trkpt lat="45.80088" lon="2.97421">
        <ele>1041.92107798</ele>
        <time>2019-04-28T07:27:04Z</time>
      </trkpt>
      <trkpt lat="45.80084" lon="2.9742">
        <ele>1043.0598191494</ele>
        <time>2019-04-28T07:27:14Z</time>
      </trkpt>
      <trkpt lat="45.80086" lon="2.97432">
        <ele>1043.8229019683</ele>
        <time>2019-04-28T07:27:24Z</time>
      </trkpt>
      <trkpt lat="45.80086" lon="2.97434">
        <ele>1044.0146441709</ele>
        <time>2019-04-28T07:27:33Z</time>
      </trkpt>
      <trkpt lat="45.80085" lon="2.97435">
        <ele>1045.0983307723</ele>
        <time>2019-04-28T07:27:48Z</time>
      </trkpt>
      <trkpt lat="45.80086" lon="2.97435">
        <ele>1047.7515835957</ele>
        <time>2019-04-28T07:28:00Z</time>
      </trkpt>
      <trkpt lat="45.80086" lon="2.97434">
        <ele>1049.4168095259</ele>
        <time>2019-04-28T07:28:13Z</time>
      </trkpt>
      <trkpt lat="45.80085" lon="2.97432">
        <ele>1050.1594488479</ele>
        <time>2019-04-28T07:28:22Z</time>
      </trkpt>
      <trkpt lat="45.80081" lon="2.97435">
        <ele>1051.3460079077</ele>
        <time>2019-04-28T07:28:31Z</time>
      </trkpt>
      <trkpt lat="45.80077" lon="2.97439">
        <ele>1052.0717636269</ele>
        <time>2019-04-28T07:28:40Z</time>
      </trkpt>
      <trkpt lat="45.80077" lon="2.97437">
        <ele>1052.4128077077</ele>
        <time>2019-04-28T07:28:49Z</time>
      </trkpt>
      <trkpt lat="45.80076" lon="2.97436">
        <ele>1053.3438192813</ele>
        <time>2019-04-28T07:29:09Z</time>
      </trkpt>
      <trkpt lat="45.80075" lon="2.97435">
        <ele>1053.9598705648</ele>
        <time>2019-04-28T07:29:19Z</time>
      </trkpt>
      <trkpt lat="45.80074" lon="2.97437">
        <ele>1054.8738438685</ele>
        <time>2019-04-28T07:29:29Z</time>
      </trkpt>
      <trkpt lat="45.80072" lon="2.9744">
        <ele>1055.4811866147</ele>
        <time>2019-04-28T07:29:38Z</time>
      </trkpt>
      <trkpt lat="45.80072" lon="2.97442">
        <ele>1055.8276014157</ele>
        <time>2019-04-28T07:29:46Z</time>
      </trkpt>
      <trkpt lat="45.80075" lon="2.97441">
        <ele>1056.0358389065</ele>
        <time>2019-04-28T07:29:55Z</time>
      </trkpt>
      <trkpt lat="45.80076" lon="2.97441">
        <ele>1056.091420285</ele>
        <time>2019-04-28T07:30:05Z</time>
      </trkpt>
      <trkpt lat="45.80077" lon="2.9744">
        <ele>1056.3252949199</ele>
        <time>2019-04-28T07:30:15Z</time>
      </trkpt>
      <trkpt lat="45.80077" lon="2.9744">
        <ele>1056.6099459019</ele>
        <time>2019-04-28T07:30:23Z</time>
      </trkpt>
      <trkpt lat="45.80075" lon="2.9744">
        <ele>1056.9825682382</ele>
        <time>2019-04-28T07:30:33Z</time>
      </trkpt>
      <trkpt lat="45.80074" lon="2.9744">
        <ele>1057.5186369844</ele>
        <time>2019-04-28T07:30:49Z</time>
      </trkpt>
      <trkpt lat="45.80074" lon="2.97441">
        <ele>1057.9430797532</ele>
        <time>2019-04-28T07:31:00Z</time>
      </trkpt>
      <trkpt lat="45.80073" lon="2.9744">
        <ele>1058.1953358234</ele>
        <time>2019-04-28T07:31:10Z</time>
      </trkpt>
      <trkpt lat="45.80072" lon="2.97442">
        <ele>1058.5092579886</ele>
        <time>2019-04-28T07:31:20Z</time>
      </trkpt>
      <trkpt lat="45.8007" lon="2.97439">
        <ele>1058.819127129</ele>
        <time>2019-04-28T07:31:29Z</time>
      </trkpt>
      <trkpt lat="45.8007" lon="2.97441">
        <ele>1059.011334332</ele>
        <time>2019-04-28T07:31:39Z</time>
      </trkpt>
      <trkpt lat="45.80072" lon="2.97442">
        <ele>1059.1673345201</ele>
        <time>2019-04-28T07:31:49Z</time>
      </trkpt>
      <trkpt lat="45.8007" lon="2.97446">
        <ele>1059.3454886969</ele>
        <time>2019-04-28T07:31:58Z</time>
      </trkpt>
      <trkpt lat="45.80067" lon="2.97454">
        <ele>1059.5117235945</ele>
        <time>2019-04-28T07:32:07Z</time>
      </trkpt>
      <trkpt lat="45.8006" lon="2.97461">
        <ele>1059.642581331</ele>
        <time>2019-04-28T07:32:16Z</time>
      </trkpt>
      <trkpt lat="45.80048" lon="2.9747">
        <ele>1059.8190072476</ele>
        <time>2019-04-28T07:32:26Z</time>
      </trkpt>
      <trkpt lat="45.80041" lon="2.97477">
        <ele>1059.9908425836</ele>
        <time>2019-04-28T07:32:34Z</time>
      </trkpt>
      <trkpt lat="45.80036" lon="2.97489">
        <ele>1060.1387908625</ele>
        <time>2019-04-28T07:32:43Z</time>
      </trkpt>
      <trkpt lat="45.80034" lon="2.97506">
        <ele>1060.3309718784</ele>
        <time>2019-04-28T07:32:53Z</time>
      </trkpt>
      <trkpt lat="45.80033" lon="2.97518">
        <ele>1060.5083281704</ele>
        <time>2019-04-28T07:33:02Z</time>
      </trkpt>
      <trkpt lat="45.80031" lon="2.97525">
        <ele>1060.6139402211</ele>
        <time>2019-04-28T07:33:10Z</time>
      </trkpt>
      <trkpt lat="45.80029" lon="2.97535">
        <ele>1060.6919585467</ele>
        <time>2019-04-28T07:33:19Z</time>
      </trkpt>
      <trkpt lat="45.80028" lon="2.97552">
        <ele>1060.8261247535</ele>
        <time>2019-04-28T07:33:29Z</time>
      </trkpt>
      <trkpt lat="45.80031" lon="2.97567">
        <ele>1060.9653615072</ele>
        <time>2019-04-28T07:33:38Z</time>
      </trkpt>
      <trkpt lat="45.80033" lon="2.9758">
        <ele>1061.1057446314</ele>
        <time>2019-04-28T07:33:47Z</time>
      </trkpt>
      <trkpt lat="45.80029" lon="2.97594">
        <ele>1061.2960440656</ele>
        <time>2019-04-28T07:33:56Z</time>
      </trkpt>
      <trkpt lat="45.80025" lon="2.97605">
        <ele>1061.5348385637</ele>
        <time>2019-04-28T07:34:06Z</time>
      </trkpt>
      <trkpt lat="45.80021" lon="2.97618">
        <ele>1061.7501473326</ele>
        <time>2019-04-28T07:34:16Z</time>
      </trkpt>
      <trkpt lat="45.80018" lon="2.97637">
        <ele>1061.9710129863</ele>
        <time>2019-04-28T07:34:24Z</time>
      </trkpt>
      <trkpt lat="45.80017" lon="2.9765">
        <ele>1062.3182700307</ele>
        <time>2019-04-28T07:34:34Z</time>
      </trkpt>
      <trkpt lat="45.80015" lon="2.97658">
        <ele>1062.675742386</ele>
        <time>2019-04-28T07:34:43Z</time>
      </trkpt>
      <trkpt lat="45.80014" lon="2.97666">
        <ele>1062.9648807615</ele>
        <time>2019-04-28T07:34:53Z</time>
      </trkpt>
      <trkpt lat="45.80009" lon="2.97672">
        <ele>1063.1891306373</ele>
        <time>2019-04-28T07:35:02Z</time>
      </trkpt>
      <trkpt lat="45.80006" lon="2.9769">
        <ele>1063.3418481916</ele>
        <time>2019-04-28T07:35:11Z</time>
      </trkpt>
      <trkpt lat="45.80005" lon="2.97693">
        <ele>1063.4011533752</ele>
        <time>2019-04-28T07:35:20Z</time>
      </trkpt>
      <trkpt lat="45.80003" lon="2.977">
        <ele>1063.4938413941</ele>
        <time>2019-04-28T07:35:29Z</time>
      </trkpt>
      <trkpt lat="45.79999" lon="2.97708">
        <ele>1063.5481096185</ele>
        <time>2019-04-28T07:35:38Z</time>
      </trkpt>
      <trkpt lat="45.79991" lon="2.97723">
        <ele>1063.6221345503</ele>
        <time>2019-04-28T07:35:47Z</time>
      </trkpt>
      <trkpt lat="45.79988" lon="2.9773">
        <ele>1063.7258793966</ele>
        <time>2019-04-28T07:35:56Z</time>
      </trkpt>
      <trkpt lat="45.79982" lon="2.97738">
        <ele>1063.8185810982</ele>
        <time>2019-04-28T07:36:05Z</time>
      </trkpt>
      <trkpt lat="45.79974" lon="2.97754">
        <ele>1064.042854145</ele>
        <time>2019-04-28T07:36:14Z</time>
      </trkpt>
      <trkpt lat="45.79967" lon="2.97762">
        <ele>1064.2466296188</ele>
        <time>2019-04-28T07:36:24Z</time>
      </trkpt>
      <trkpt lat="45.79957" lon="2.97765">
        <ele>1064.3838335141</ele>
        <time>2019-04-28T07:36:32Z</time>
      </trkpt>
      <trkpt lat="45.7995" lon="2.97772">
        <ele>1064.5653146814</ele>
        <time>2019-04-28T07:36:42Z</time>
      </trkpt>
      <trkpt lat="45.79942" lon="2.97783">
        <ele>1064.7684539252</ele>
        <time>2019-04-28T07:36:50Z</time>
      </trkpt>
      <trkpt lat="45.79938" lon="2.97782">
        <ele>1065.1252043218</ele>
        <time>2019-04-28T07:36:59Z</time>
      </trkpt>
      <trkpt lat="45.79933" lon="2.97783">
        <ele>1065.4667268739</ele>
        <time>2019-04-28T07:37:07Z</time>
      </trkpt>
      <trkpt lat="45.79931" lon="2.97787">
        <ele>1065.7470943356</ele>
        <time>2019-04-28T07:37:16Z</time>
      </trkpt>
      <trkpt lat="45.7993" lon="2.97789">
        <ele>1065.809449794</ele>
        <time>2019-04-28T07:37:25Z</time>
      </trkpt>
      <trkpt lat="45.79929" lon="2.9779">
        <ele>1065.8935873418</ele>
        <time>2019-04-28T07:37:44Z</time>
      </trkpt>
      <trkpt lat="45.79928" lon="2.9779">
        <ele>1066.0036352314</ele>
        <time>2019-04-28T07:37:57Z</time>
      </trkpt>
      <trkpt lat="45.79928" lon="2.97791">
        <ele>1066.2217716458</ele>
        <time>2019-04-28T07:38:27Z</time>
      </trkpt>
      <trkpt lat="45.79927" lon="2.97791">
        <ele>1066.3846024863</ele>
        <time>2019-04-28T07:38:37Z</time>
      </trkpt>
      <trkpt lat="45.79926" lon="2.97792">
        <ele>1066.53596386</ele>
        <time>2019-04-28T07:38:46Z</time>
      </trkpt>
      <trkpt lat="45.79925" lon="2.97794">
        <ele>1066.7401464518</ele>
        <time>2019-04-28T07:38:55Z</time>
      </trkpt>
      <trkpt lat="45.79918" lon="2.9779">
        <ele>1067.2391972486</ele>
        <time>2019-04-28T07:39:05Z</time>
      </trkpt>
      <trkpt lat="45.79903" lon="2.97791">
        <ele>1067.6528789564</ele>
        <time>2019-04-28T07:39:14Z</time>
      </trkpt>
      <trkpt lat="45.79893" lon="2.97792">
        <ele>1067.9907388091</ele>
        <time>2019-04-28T07:39:23Z</time>
      </trkpt>
      <trkpt lat="45.79884" lon="2.97794">
        <ele>1068.2633644444</ele>
        <time>2019-04-28T07:39:31Z</time>
      </trkpt>
      <trkpt lat="45.79877" lon="2.97798">
        <ele>1068.5462575572</ele>
        <time>2019-04-28T07:39:41Z</time>
      </trkpt>
      <trkpt lat="45.7987" lon="2.97801">
        <ele>1068.7674514533</ele>
        <time>2019-04-28T07:39:49Z</time>
      </trkpt>
      <trkpt lat="45.79865" lon="2.978">
        <ele>1068.9459727117</ele>
        <time>2019-04-28T07:39:58Z</time>
      </trkpt>
      <trkpt lat="45.79858" lon="2.97791">
        <ele>1069.2474136093</ele>
        <time>2019-04-28T07:40:07Z</time>
      </trkpt>
      <trkpt lat="45.7985" lon="2.97781">
        <ele>1069.5256435191</ele>
        <time>2019-04-28T07:40:16Z</time>
      </trkpt>
      <trkpt lat="45.79845" lon="2.97772">
        <ele>1069.9760656148</ele>
        <time>2019-04-28T07:40:26Z</time>
      </trkpt>
      <trkpt lat="45.79838" lon="2.97758">
        <ele>1070.4205024511</ele>
        <time>2019-04-28T07:40:35Z</time>
      </trkpt>
      <trkpt lat="45.79835" lon="2.97751">
        <ele>1070.8457713806</ele>
        <time>2019-04-28T07:40:44Z</time>
      </trkpt>
      <trkpt lat="45.79828" lon="2.97738">
        <ele>1071.4231477345</ele>
        <time>2019-04-28T07:40:54Z</time>
      </trkpt>
      <trkpt lat="45.79823" lon="2.97729">
        <ele>1071.9732099686</ele>
        <time>2019-04-28T07:41:03Z</time>
      </trkpt>
      <trkpt lat="45.79815" lon="2.97713">
        <ele>1072.5262757964</ele>
        <time>2019-04-28T07:41:12Z</time>
      </trkpt>
      <trkpt lat="45.79809" lon="2.97704">
        <ele>1073.0114149838</ele>
        <time>2019-04-28T07:41:20Z</time>
      </trkpt>
      <trkpt lat="45.79805" lon="2.97697">
        <ele>1073.4293365649</ele>
        <time>2019-04-28T07:41:29Z</time>
      </trkpt>
      <trkpt lat="45.79804" lon="2.97695">
        <ele>1073.7698615003</ele>
        <time>2019-04-28T07:41:39Z</time>
      </trkpt>
      <trkpt lat="45.79804" lon="2.97693">
        <ele>1074.1718390608</ele>
        <time>2019-04-28T07:41:48Z</time>
      </trkpt>
      <trkpt lat="45.79802" lon="2.9769">
        <ele>1074.7469796404</ele>
        <time>2019-04-28T07:41:58Z</time>
      </trkpt>
      <trkpt lat="45.79802" lon="2.97692">
        <ele>1074.9266704549</ele>
        <time>2019-04-28T07:42:06Z</time>
      </trkpt>
      <trkpt lat="45.79803" lon="2.97692">
        <ele>1075.3187033343</ele>
        <time>2019-04-28T07:42:16Z</time>
      </trkpt>
      <trkpt lat="45.79804" lon="2.97689">
        <ele>1075.5531146878</ele>
        <time>2019-04-28T07:42:25Z</time>
      </trkpt>
      <trkpt lat="45.79806" lon="2.97687">
        <ele>1075.7929511837</ele>
        <time>2019-04-28T07:42:35Z</time>
      </trkpt>
      <trkpt lat="45.79807" lon="2.97684">
        <ele>1075.9637773952</ele>
        <time>2019-04-28T07:42:43Z</time>
      </trkpt>
      <trkpt lat="45.79807" lon="2.97686">
        <ele>1076.1835729532</ele>
        <time>2019-04-28T07:42:53Z</time>
      </trkpt>
      <trkpt lat="45.79807" lon="2.97691">
        <ele>1076.5455825982</ele>
        <time>2019-04-28T07:43:03Z</time>
      </trkpt>
      <trkpt lat="45.7981" lon="2.9769">
        <ele>1076.7939830252</ele>
        <time>2019-04-28T07:43:11Z</time>
      </trkpt>
      <trkpt lat="45.79811" lon="2.97691">
        <ele>1077.0009117031</ele>
        <time>2019-04-28T07:43:21Z</time>
      </trkpt>
      <trkpt lat="45.79806" lon="2.97696">
        <ele>1077.2118764328</ele>
        <time>2019-04-28T07:43:29Z</time>
      </trkpt>
      <trkpt lat="45.79805" lon="2.97696">
        <ele>1077.2898703441</ele>
        <time>2019-04-28T07:43:37Z</time>
      </trkpt>
      <trkpt lat="45.79803" lon="2.97703">
        <ele>1077.5050217131</ele>
        <time>2019-04-28T07:43:47Z</time>
      </trkpt>
      <trkpt lat="45.79803" lon="2.97702">
        <ele>1077.6729159533</ele>
        <time>2019-04-28T07:44:00Z</time>
      </trkpt>
      <trkpt lat="45.79803" lon="2.97699">
        <ele>1077.8228966489</ele>
        <time>2019-04-28T07:44:09Z</time>
      </trkpt>
      <trkpt lat="45.79802" lon="2.97699">
        <ele>1077.9066953307</ele>
        <time>2019-04-28T07:44:18Z</time>
      </trkpt>
      <trkpt lat="45.798" lon="2.977">
        <ele>1077.9890384362</ele>
        <time>2019-04-28T07:44:26Z</time>
      </trkpt>
      <trkpt lat="45.79805" lon="2.97696">
        <ele>1078.7785123482</ele>
        <time>2019-04-28T07:44:35Z</time>
      </trkpt>
      <trkpt lat="45.79812" lon="2.97694">
        <ele>1080.127433496</ele>
        <time>2019-04-28T07:44:45Z</time>
      </trkpt>
      <trkpt lat="45.7982" lon="2.97691">
        <ele>1081.4050963454</ele>
        <time>2019-04-28T07:44:54Z</time>
      </trkpt>
      <trkpt lat="45.79826" lon="2.9769">
        <ele>1082.5008853518</ele>
        <time>2019-04-28T07:45:02Z</time>
      </trkpt>
      <trkpt lat="45.79827" lon="2.97673">
        <ele>1083.7616435931</ele>
        <time>2019-04-28T07:45:12Z</time>
      </trkpt>
      <trkpt lat="45.79825" lon="2.97666">
        <ele>1084.6703634757</ele>
        <time>2019-04-28T07:45:20Z</time>
      </trkpt>
      <trkpt lat="45.79822" lon="2.97656">
        <ele>1085.6053626531</ele>
        <time>2019-04-28T07:45:29Z</time>
      </trkpt>
      <trkpt lat="45.79819" lon="2.97644">
        <ele>1086.4359197419</ele>
        <time>2019-04-28T07:45:38Z</time>
      </trkpt>
      <trkpt lat="45.79812" lon="2.97627">
        <ele>1087.0440068691</ele>
        <time>2019-04-28T07:45:48Z</time>
      </trkpt>
      <trkpt lat="45.79811" lon="2.9762">
        <ele>1087.6599198028</ele>
        <time>2019-04-28T07:45:57Z</time>
      </trkpt>
      <trkpt lat="45.7981" lon="2.97607">
        <ele>1088.3619325641</ele>
        <time>2019-04-28T07:46:07Z</time>
      </trkpt>
      <trkpt lat="45.79813" lon="2.97596">
        <ele>1088.8909526031</ele>
        <time>2019-04-28T07:46:16Z</time>
      </trkpt>
      <trkpt lat="45.79818" lon="2.9758">
        <ele>1089.4554668237</ele>
        <time>2019-04-28T07:46:25Z</time>
      </trkpt>
      <trkpt lat="45.7982" lon="2.9757">
        <ele>1090.0235571876</ele>
        <time>2019-04-28T07:46:34Z</time>
      </trkpt>
      <trkpt lat="45.79823" lon="2.97562">
        <ele>1090.3665670578</ele>
        <time>2019-04-28T07:46:43Z</time>
      </trkpt>
      <trkpt lat="45.79824" lon="2.97557">
        <ele>1090.9818463899</ele>
        <time>2019-04-28T07:46:53Z</time>
      </trkpt>
      <trkpt lat="45.79828" lon="2.97552">
        <ele>1091.5695618433</ele>
        <time>2019-04-28T07:47:01Z</time>
      </trkpt>
      <trkpt lat="45.79833" lon="2.97537">
        <ele>1092.2517892077</ele>
        <time>2019-04-28T07:47:10Z</time>
      </trkpt>
      <trkpt lat="45.79836" lon="2.97522">
        <ele>1093.0243538696</ele>
        <time>2019-04-28T07:47:19Z</time>
      </trkpt>
      <trkpt lat="45.79836" lon="2.97513">
        <ele>1093.7671308975</ele>
        <time>2019-04-28T07:47:27Z</time>
      </trkpt>
      <trkpt lat="45.79837" lon="2.97496">
        <ele>1094.6710248968</ele>
        <time>2019-04-28T07:47:37Z</time>
      </trkpt>
      <trkpt lat="45.79839" lon="2.9749">
        <ele>1095.4861914445</ele>
        <time>2019-04-28T07:47:46Z</time>
      </trkpt>
      <trkpt lat="45.7984" lon="2.97474">
        <ele>1096.4263605372</ele>
        <time>2019-04-28T07:47:56Z</time>
      </trkpt>
      <trkpt lat="45.7984" lon="2.97468">
        <ele>1097.1678591291</ele>
        <time>2019-04-28T07:48:05Z</time>
      </trkpt>
      <trkpt lat="45.79842" lon="2.97465">
        <ele>1097.2742482296</ele>
        <time>2019-04-28T07:48:14Z</time>
      </trkpt>
      <trkpt lat="45.79844" lon="2.97461">
        <ele>1098.1045228167</ele>
        <time>2019-04-28T07:48:23Z</time>
      </trkpt>
      <trkpt lat="45.79846" lon="2.97445">
        <ele>1099.3577346452</ele>
        <time>2019-04-28T07:48:33Z</time>
      </trkpt>
      <trkpt lat="45.79848" lon="2.97435">
        <ele>1100.4366497259</ele>
        <time>2019-04-28T07:48:41Z</time>
      </trkpt>
      <trkpt lat="45.7985" lon="2.97426">
        <ele>1101.6912876306</ele>
        <time>2019-04-28T07:48:50Z</time>
      </trkpt>
      <trkpt lat="45.79847" lon="2.97417">
        <ele>1102.910074004</ele>
        <time>2019-04-28T07:48:59Z</time>
      </trkpt>
      <trkpt lat="45.79849" lon="2.97405">
        <ele>1104.0998100271</ele>
        <time>2019-04-28T07:49:08Z</time>
      </trkpt>
      <trkpt lat="45.7985" lon="2.97393">
        <ele>1105.3320308673</ele>
        <time>2019-04-28T07:49:17Z</time>
      </trkpt>
      <trkpt lat="45.79851" lon="2.97381">
        <ele>1106.6099250363</ele>
        <time>2019-04-28T07:49:26Z</time>
      </trkpt>
      <trkpt lat="45.7985" lon="2.97373">
        <ele>1107.728456863</ele>
        <time>2019-04-28T07:49:34Z</time>
      </trkpt>
      <trkpt lat="45.79851" lon="2.97361">
        <ele>1108.9711161062</ele>
        <time>2019-04-28T07:49:43Z</time>
      </trkpt>
      <trkpt lat="45.79853" lon="2.97351">
        <ele>1110.0027605532</ele>
        <time>2019-04-28T07:49:53Z</time>
      </trkpt>
      <trkpt lat="45.79853" lon="2.9735">
        <ele>1110.5228540626</ele>
        <time>2019-04-28T07:50:03Z</time>
      </trkpt>
      <trkpt lat="45.79853" lon="2.97339">
        <ele>1112.3708448138</ele>
        <time>2019-04-28T07:50:13Z</time>
      </trkpt>
      <trkpt lat="45.79854" lon="2.97331">
        <ele>1113.9263655828</ele>
        <time>2019-04-28T07:50:22Z</time>
      </trkpt>
      <trkpt lat="45.79856" lon="2.9732">
        <ele>1115.2399356215</ele>
        <time>2019-04-28T07:50:31Z</time>
      </trkpt>
      <trkpt lat="45.79854" lon="2.97312">
        <ele>1116.3766104027</ele>
        <time>2019-04-28T07:50:40Z</time>
      </trkpt>
      <trkpt lat="45.79854" lon="2.97305">
        <ele>1117.6122056631</ele>
        <time>2019-04-28T07:50:49Z</time>
      </trkpt>
      <trkpt lat="45.7985" lon="2.97296">
        <ele>1118.6420078987</ele>
        <time>2019-04-28T07:50:57Z</time>
      </trkpt>
      <trkpt lat="45.79844" lon="2.97283">
        <ele>1119.9140933043</ele>
        <time>2019-04-28T07:51:06Z</time>
      </trkpt>
      <trkpt lat="45.79841" lon="2.9727">
        <ele>1121.2842462867</ele>
        <time>2019-04-28T07:51:16Z</time>
      </trkpt>
      <trkpt lat="45.7984" lon="2.97266">
        <ele>1122.1256250729</ele>
        <time>2019-04-28T07:51:25Z</time>
      </trkpt>
      <trkpt lat="45.79841" lon="2.97258">
        <ele>1122.9363465029</ele>
        <time>2019-04-28T07:51:34Z</time>
      </trkpt>
      <trkpt lat="45.79841" lon="2.97256">
        <ele>1123.1770204946</ele>
        <time>2019-04-28T07:51:44Z</time>
      </trkpt>
      <trkpt lat="45.79841" lon="2.97255">
        <ele>1123.4417194827</ele>
        <time>2019-04-28T07:51:54Z</time>
      </trkpt>
      <trkpt lat="45.79839" lon="2.97243">
        <ele>1124.7693027792</ele>
        <time>2019-04-28T07:52:04Z</time>
      </trkpt>
      <trkpt lat="45.79838" lon="2.97231">
        <ele>1125.8853511961</ele>
        <time>2019-04-28T07:52:14Z</time>
      </trkpt>
      <trkpt lat="45.79836" lon="2.97221">
        <ele>1126.8474189605</ele>
        <time>2019-04-28T07:52:22Z</time>
      </trkpt>
      <trkpt lat="45.79831" lon="2.97205">
        <ele>1127.9188448653</ele>
        <time>2019-04-28T07:52:32Z</time>
      </trkpt>
      <trkpt lat="45.79829" lon="2.97187">
        <ele>1129.07424922</ele>
        <time>2019-04-28T07:52:42Z</time>
      </trkpt>
      <trkpt lat="45.79825" lon="2.97174">
        <ele>1130.1883205965</ele>
        <time>2019-04-28T07:52:51Z</time>
      </trkpt>
      <trkpt lat="45.7982" lon="2.9716">
        <ele>1131.4960187156</ele>
        <time>2019-04-28T07:53:01Z</time>
      </trkpt>
      <trkpt lat="45.79814" lon="2.97148">
        <ele>1132.7611239293</ele>
        <time>2019-04-28T07:53:11Z</time>
      </trkpt>
      <trkpt lat="45.79814" lon="2.97149">
        <ele>1133.3536151446</ele>
        <time>2019-04-28T07:53:23Z</time>
      </trkpt>
      <trkpt lat="45.79816" lon="2.97149">
        <ele>1133.4927758124</ele>
        <time>2019-04-28T07:53:32Z</time>
      </trkpt>
      <trkpt lat="45.79818" lon="2.97149">
        <ele>1134.5338992321</ele>
        <time>2019-04-28T07:53:42Z</time>
      </trkpt>
      <trkpt lat="45.79818" lon="2.97148">
        <ele>1135.1970029734</ele>
        <time>2019-04-28T07:54:08Z</time>
      </trkpt>
      <trkpt lat="45.7982" lon="2.97148">
        <ele>1135.7489248443</ele>
        <time>2019-04-28T07:54:17Z</time>
      </trkpt>
      <trkpt lat="45.7982" lon="2.97147">
        <ele>1136.2258406517</ele>
        <time>2019-04-28T07:54:31Z</time>
      </trkpt>
      <trkpt lat="45.79821" lon="2.97147">
        <ele>1137.3593261662</ele>
        <time>2019-04-28T07:55:04Z</time>
      </trkpt>
      <trkpt lat="45.79822" lon="2.97146">
        <ele>1137.7118779417</ele>
        <time>2019-04-28T07:55:19Z</time>
      </trkpt>
      <trkpt lat="45.79822" lon="2.97147">
        <ele>1139.8557726333</ele>
        <time>2019-04-28T07:55:55Z</time>
      </trkpt>
      <trkpt lat="45.79823" lon="2.97146">
        <ele>1140.3775702505</ele>
        <time>2019-04-28T07:56:05Z</time>
      </trkpt>
      <trkpt lat="45.79822" lon="2.97146">
        <ele>1142.0188065273</ele>
        <time>2019-04-28T07:56:27Z</time>
      </trkpt>
      <trkpt lat="45.79821" lon="2.97149">
        <ele>1142.5362955375</ele>
        <time>2019-04-28T07:56:36Z</time>
      </trkpt>
      <trkpt lat="45.79819" lon="2.9715">
        <ele>1144.3126621528</ele>
        <time>2019-04-28T07:56:45Z</time>
      </trkpt>
      <trkpt lat="45.79823" lon="2.97147">
        <ele>1145.258350375</ele>
        <time>2019-04-28T07:56:54Z</time>
      </trkpt>
      <trkpt lat="45.79829" lon="2.97147">
        <ele>1146.3586292563</ele>
        <time>2019-04-28T07:57:03Z</time>
      </trkpt>
      <trkpt lat="45.79828" lon="2.97148">
        <ele>1147.3504738788</ele>
        <time>2019-04-28T07:57:20Z</time>
      </trkpt>
      <trkpt lat="45.79824" lon="2.97145">
        <ele>1149.1819538611</ele>
        <time>2019-04-28T07:57:29Z</time>
      </trkpt>
      <trkpt lat="45.79815" lon="2.97126">
        <ele>1150.761888538</ele>
        <time>2019-04-28T07:57:38Z</time>
      </trkpt>
      <trkpt lat="45.79808" lon="2.97116">
        <ele>1152.2093841275</ele>
        <time>2019-04-28T07:57:47Z</time>
      </trkpt>
      <trkpt lat="45.79807" lon="2.97112">
        <ele>1152.7409767934</ele>
        <time>2019-04-28T07:57:56Z</time>
      </trkpt>
      <trkpt lat="45.79808" lon="2.97113">
        <ele>1153.2533258572</ele>
        <time>2019-04-28T07:58:13Z</time>
      </trkpt>
      <trkpt lat="45.79808" lon="2.97114">
        <ele>1153.8835950513</ele>
        <time>2019-04-28T07:58:27Z</time>
      </trkpt>
      <trkpt lat="45.79807" lon="2.97115">
        <ele>1154.2651095771</ele>
        <time>2019-04-28T07:58:35Z</time>
      </trkpt>
      <trkpt lat="45.79807" lon="2.97114">
        <ele>1155.656593986</ele>
        <time>2019-04-28T07:59:02Z</time>
      </trkpt>
      <trkpt lat="45.79806" lon="2.97114">
        <ele>1156.0888072205</ele>
        <time>2019-04-28T07:59:12Z</time>
      </trkpt>
      <trkpt lat="45.79804" lon="2.97115">
        <ele>1156.8711711607</ele>
        <time>2019-04-28T07:59:21Z</time>
      </trkpt>
      <trkpt lat="45.79803" lon="2.97121">
        <ele>1157.5059007555</ele>
        <time>2019-04-28T07:59:31Z</time>
      </trkpt>
      <trkpt lat="45.79807" lon="2.97122">
        <ele>1158.3169665885</ele>
        <time>2019-04-28T07:59:41Z</time>
      </trkpt>
      <trkpt lat="45.79807" lon="2.9711">
        <ele>1158.905290956</ele>
        <time>2019-04-28T07:59:50Z</time>
      </trkpt>
      <trkpt lat="45.79805" lon="2.97099">
        <ele>1159.4500147314</ele>
        <time>2019-04-28T07:59:58Z</time>
      </trkpt>
      <trkpt lat="45.79804" lon="2.97097">
        <ele>1159.5828569491</ele>
        <time>2019-04-28T08:00:07Z</time>
      </trkpt>
      <trkpt lat="45.79803" lon="2.97097">
        <ele>1159.730895858</ele>
        <time>2019-04-28T08:00:26Z</time>
      </trkpt>
      <trkpt lat="45.79803" lon="2.97098">
        <ele>1160.1195188075</ele>
        <time>2019-04-28T08:00:53Z</time>
      </trkpt>
      <trkpt lat="45.79803" lon="2.971">
        <ele>1160.4188417593</ele>
        <time>2019-04-28T08:01:02Z</time>
      </trkpt>
      <trkpt lat="45.79802" lon="2.97096">
        <ele>1161.0958699724</ele>
        <time>2019-04-28T08:01:11Z</time>
      </trkpt>
      <trkpt lat="45.798" lon="2.97084">
        <ele>1161.6715846621</ele>
        <time>2019-04-28T08:01:20Z</time>
      </trkpt>
      <trkpt lat="45.79794" lon="2.97068">
        <ele>1162.1987120356</ele>
        <time>2019-04-28T08:01:29Z</time>
      </trkpt>
      <trkpt lat="45.79787" lon="2.97057">
        <ele>1162.6761538153</ele>
        <time>2019-04-28T08:01:38Z</time>
      </trkpt>
      <trkpt lat="45.79783" lon="2.97055">
        <ele>1162.9701278177</ele>
        <time>2019-04-28T08:01:47Z</time>
      </trkpt>
      <trkpt lat="45.79781" lon="2.9706">
        <ele>1163.2894034418</ele>
        <time>2019-04-28T08:01:56Z</time>
      </trkpt>
      <trkpt lat="45.79781" lon="2.97069">
        <ele>1163.6367905371</ele>
        <time>2019-04-28T08:02:06Z</time>
      </trkpt>
      <trkpt lat="45.79782" lon="2.97072">
        <ele>1163.6960521545</ele>
        <time>2019-04-28T08:02:15Z</time>
      </trkpt>
      <trkpt lat="45.79783" lon="2.97075">
        <ele>1163.8615089426</ele>
        <time>2019-04-28T08:02:23Z</time>
      </trkpt>
      <trkpt lat="45.79785" lon="2.97081">
        <ele>1164.055942116</ele>
        <time>2019-04-28T08:02:32Z</time>
      </trkpt>
      <trkpt lat="45.79785" lon="2.97083">
        <ele>1164.0984990959</ele>
        <time>2019-04-28T08:02:40Z</time>
      </trkpt>
      <trkpt lat="45.79786" lon="2.97085">
        <ele>1164.1999647016</ele>
        <time>2019-04-28T08:02:49Z</time>
      </trkpt>
      <trkpt lat="45.79785" lon="2.97085">
        <ele>1164.3348871847</ele>
        <time>2019-04-28T08:03:11Z</time>
      </trkpt>
      <trkpt lat="45.79783" lon="2.97082">
        <ele>1164.3636418806</ele>
        <time>2019-04-28T08:03:20Z</time>
      </trkpt>
      <trkpt lat="45.79784" lon="2.97083">
        <ele>1164.4366064644</ele>
        <time>2019-04-28T08:03:44Z</time>
      </trkpt>
      <trkpt lat="45.79784" lon="2.97083">
        <ele>1164.4544815899</ele>
        <time>2019-04-28T08:03:55Z</time>
      </trkpt>
      <trkpt lat="45.79785" lon="2.97084">
        <ele>1164.466526098</ele>
        <time>2019-04-28T08:04:04Z</time>
      </trkpt>
      <trkpt lat="45.79784" lon="2.97084">
        <ele>1164.5470502337</ele>
        <time>2019-04-28T08:04:28Z</time>
      </trkpt>
      <trkpt lat="45.79783" lon="2.97082">
        <ele>1164.557842596</ele>
        <time>2019-04-28T08:04:37Z</time>
      </trkpt>
      <trkpt lat="45.79783" lon="2.97086">
        <ele>1164.6113333943</ele>
        <time>2019-04-28T08:04:46Z</time>
      </trkpt>
      <trkpt lat="45.79785" lon="2.97099">
        <ele>1164.6720279148</ele>
        <time>2019-04-28T08:04:55Z</time>
      </trkpt>
      <trkpt lat="45.79785" lon="2.97101">
        <ele>1164.7058891299</ele>
        <time>2019-04-28T08:05:05Z</time>
      </trkpt>
      <trkpt lat="45.79786" lon="2.97109">
        <ele>1164.7384092149</ele>
        <time>2019-04-28T08:05:13Z</time>
      </trkpt>
      <trkpt lat="45.79787" lon="2.97111">
        <ele>1164.7422699405</ele>
        <time>2019-04-28T08:05:23Z</time>
      </trkpt>
      <trkpt lat="45.79788" lon="2.97119">
        <ele>1164.7281637093</ele>
        <time>2019-04-28T08:05:32Z</time>
      </trkpt>
      <trkpt lat="45.79788" lon="2.97128">
        <ele>1164.7236412967</ele>
        <time>2019-04-28T08:05:42Z</time>
      </trkpt>
      <trkpt lat="45.79789" lon="2.97136">
        <ele>1164.7163531822</ele>
        <time>2019-04-28T08:05:51Z</time>
      </trkpt>
      <trkpt lat="45.79789" lon="2.97139">
        <ele>1164.7047882851</ele>
        <time>2019-04-28T08:06:00Z</time>
      </trkpt>
      <trkpt lat="45.79788" lon="2.97146">
        <ele>1164.6938290392</ele>
        <time>2019-04-28T08:06:09Z</time>
      </trkpt>
      <trkpt lat="45.79787" lon="2.9715">
        <ele>1164.6931195941</ele>
        <time>2019-04-28T08:06:18Z</time>
      </trkpt>
      <trkpt lat="45.79787" lon="2.9716">
        <ele>1164.6957564057</ele>
        <time>2019-04-28T08:06:26Z</time>
      </trkpt>
      <trkpt lat="45.79786" lon="2.97165">
        <ele>1164.6886905525</ele>
        <time>2019-04-28T08:06:35Z</time>
      </trkpt>
      <trkpt lat="45.79785" lon="2.97165">
        <ele>1164.6776429651</ele>
        <time>2019-04-28T08:06:44Z</time>
      </trkpt>
      <trkpt lat="45.79782" lon="2.9717">
        <ele>1164.6619645669</ele>
        <time>2019-04-28T08:06:52Z</time>
      </trkpt>
      <trkpt lat="45.79778" lon="2.9718">
        <ele>1164.6240600466</ele>
        <time>2019-04-28T08:07:02Z</time>
      </trkpt>
      <trkpt lat="45.79779" lon="2.97178">
        <ele>1164.6046921254</ele>
        <time>2019-04-28T08:07:11Z</time>
      </trkpt>
      <trkpt lat="45.79777" lon="2.97178">
        <ele>1164.563648822</ele>
        <time>2019-04-28T08:07:21Z</time>
      </trkpt>
      <trkpt lat="45.79776" lon="2.97178">
        <ele>1164.5297582894</ele>
        <time>2019-04-28T08:07:34Z</time>
      </trkpt>
      <trkpt lat="45.79777" lon="2.97178">
        <ele>1164.31132004</ele>
        <time>2019-04-28T08:07:45Z</time>
      </trkpt>
      <trkpt lat="45.79773" lon="2.97185">
        <ele>1164.0918648493</ele>
        <time>2019-04-28T08:07:53Z</time>
      </trkpt>
      <trkpt lat="45.7977" lon="2.97196">
        <ele>1163.8467844269</ele>
        <time>2019-04-28T08:08:01Z</time>
      </trkpt>
      <trkpt lat="45.79768" lon="2.97199">
        <ele>1163.6105683022</ele>
        <time>2019-04-28T08:08:11Z</time>
      </trkpt>
      <trkpt lat="45.79763" lon="2.97203">
        <ele>1163.3700499829</ele>
        <time>2019-04-28T08:08:20Z</time>
      </trkpt>
      <trkpt lat="45.79759" lon="2.97208">
        <ele>1163.0894065042</ele>
        <time>2019-04-28T08:08:30Z</time>
      </trkpt>
      <trkpt lat="45.79753" lon="2.97214">
        <ele>1162.8484172574</ele>
        <time>2019-04-28T08:08:39Z</time>
      </trkpt>
      <trkpt lat="45.79741" lon="2.97222">
        <ele>1162.5706347004</ele>
        <time>2019-04-28T08:08:49Z</time>
      </trkpt>
      <trkpt lat="45.79732" lon="2.97223">
        <ele>1162.336429503</ele>
        <time>2019-04-28T08:08:57Z</time>
      </trkpt>
      <trkpt lat="45.79728" lon="2.97221">
        <ele>1162.2548439961</ele>
        <time>2019-04-28T08:09:07Z</time>
      </trkpt>
      <trkpt lat="45.79731" lon="2.97214">
        <ele>1162.0434698619</ele>
        <time>2019-04-28T08:09:16Z</time>
      </trkpt>
      <trkpt lat="45.79731" lon="2.97214">
        <ele>1161.9583027673</ele>
        <time>2019-04-28T08:09:32Z</time>
      </trkpt>
      <trkpt lat="45.79731" lon="2.97213">
        <ele>1161.7433766863</ele>
        <time>2019-04-28T08:09:45Z</time>
      </trkpt>
      <trkpt lat="45.79721" lon="2.9722">
        <ele>1161.0847965703</ele>
        <time>2019-04-28T08:09:54Z</time>
      </trkpt>
      <trkpt lat="45.79717" lon="2.97219">
        <ele>1160.7609494882</ele>
        <time>2019-04-28T08:10:03Z</time>
      </trkpt>
      <trkpt lat="45.79718" lon="2.97219">
        <ele>1160.2110230478</ele>
        <time>2019-04-28T08:10:25Z</time>
      </trkpt>
      <trkpt lat="45.7971" lon="2.97217">
        <ele>1159.5074560833</ele>
        <time>2019-04-28T08:10:33Z</time>
      </trkpt>
      <trkpt lat="45.79706" lon="2.97213">
        <ele>1158.9094335883</ele>
        <time>2019-04-28T08:10:42Z</time>
      </trkpt>
      <trkpt lat="45.79702" lon="2.9721">
        <ele>1158.2990388708</ele>
        <time>2019-04-28T08:10:52Z</time>
      </trkpt>
      <trkpt lat="45.79699" lon="2.97209">
        <ele>1157.8604293649</ele>
        <time>2019-04-28T08:11:01Z</time>
      </trkpt>
      <trkpt lat="45.79689" lon="2.97202">
        <ele>1157.2393461217</ele>
        <time>2019-04-28T08:11:11Z</time>
      </trkpt>
      <trkpt lat="45.79681" lon="2.97193">
        <ele>1156.7543193886</ele>
        <time>2019-04-28T08:11:20Z</time>
      </trkpt>
      <trkpt lat="45.79681" lon="2.97192">
        <ele>1156.4971111906</ele>
        <time>2019-04-28T08:11:37Z</time>
      </trkpt>
      <trkpt lat="45.79682" lon="2.97191">
        <ele>1156.3629533627</ele>
        <time>2019-04-28T08:11:49Z</time>
      </trkpt>
      <trkpt lat="45.79678" lon="2.97182">
        <ele>1155.7793580402</ele>
        <time>2019-04-28T08:11:58Z</time>
      </trkpt>
      <trkpt lat="45.79672" lon="2.97165">
        <ele>1155.2521536966</ele>
        <time>2019-04-28T08:12:07Z</time>
      </trkpt>
      <trkpt lat="45.79673" lon="2.97151">
        <ele>1154.7695667349</ele>
        <time>2019-04-28T08:12:16Z</time>
      </trkpt>
      <trkpt lat="45.79678" lon="2.97158">
        <ele>1154.3060686599</ele>
        <time>2019-04-28T08:12:26Z</time>
      </trkpt>
      <trkpt lat="45.7968" lon="2.97156">
        <ele>1153.9604364622</ele>
        <time>2019-04-28T08:12:35Z</time>
      </trkpt>
      <trkpt lat="45.79683" lon="2.97152">
        <ele>1153.5961799776</ele>
        <time>2019-04-28T08:12:44Z</time>
      </trkpt>
      <trkpt lat="45.79683" lon="2.97152">
        <ele>1153.2911144357</ele>
        <time>2019-04-28T08:12:55Z</time>
      </trkpt>
      <trkpt lat="45.79684" lon="2.97157">
        <ele>1153.049224479</ele>
        <time>2019-04-28T08:13:04Z</time>
      </trkpt>
      <trkpt lat="45.79688" lon="2.97167">
        <ele>1152.6792008253</ele>
        <time>2019-04-28T08:13:13Z</time>
      </trkpt>
      <trkpt lat="45.79689" lon="2.97168">
        <ele>1152.2752239297</ele>
        <time>2019-04-28T08:13:28Z</time>
      </trkpt>
      <trkpt lat="45.79687" lon="2.97165">
        <ele>1152.099366297</ele>
        <time>2019-04-28T08:13:38Z</time>
      </trkpt>
      <trkpt lat="45.79686" lon="2.97164">
        <ele>1152.0701086752</ele>
        <time>2019-04-28T08:13:47Z</time>
      </trkpt>
      <trkpt lat="45.79686" lon="2.97163">
        <ele>1152.0380713685</ele>
        <time>2019-04-28T08:13:56Z</time>
      </trkpt>
      <trkpt lat="45.79686" lon="2.97164">
        <ele>1151.9028974063</ele>
        <time>2019-04-28T08:14:12Z</time>
      </trkpt>
      <trkpt lat="45.79687" lon="2.97161">
        <ele>1151.6558386781</ele>
        <time>2019-04-28T08:14:21Z</time>
      </trkpt>
      <trkpt lat="45.79688" lon="2.97162">
        <ele>1151.5557771985</ele>
        <time>2019-04-28T08:14:29Z</time>
      </trkpt>
      <trkpt lat="45.79688" lon="2.97161">
        <ele>1151.4450792352</ele>
        <time>2019-04-28T08:14:38Z</time>
      </trkpt>
      <trkpt lat="45.79689" lon="2.97158">
        <ele>1151.1239561084</ele>
        <time>2019-04-28T08:14:47Z</time>
      </trkpt>
      <trkpt lat="45.79691" lon="2.97162">
        <ele>1150.8698356988</ele>
        <time>2019-04-28T08:14:56Z</time>
      </trkpt>
      <trkpt lat="45.7969" lon="2.97163">
        <ele>1150.6912878026</ele>
        <time>2019-04-28T08:15:06Z</time>
      </trkpt>
      <trkpt lat="45.7969" lon="2.97162">
        <ele>1150.5052437775</ele>
        <time>2019-04-28T08:15:14Z</time>
      </trkpt>
      <trkpt lat="45.79689" lon="2.9716">
        <ele>1150.3558481103</ele>
        <time>2019-04-28T08:15:23Z</time>
      </trkpt>
      <trkpt lat="45.79689" lon="2.97159">
        <ele>1150.1734944276</ele>
        <time>2019-04-28T08:15:33Z</time>
      </trkpt>
      <trkpt lat="45.79688" lon="2.97157">
        <ele>1150.096003156</ele>
        <time>2019-04-28T08:15:42Z</time>
      </trkpt>
      <trkpt lat="45.79688" lon="2.97156">
        <ele>1150.0569866873</ele>
        <time>2019-04-28T08:15:54Z</time>
      </trkpt>
      <trkpt lat="45.79688" lon="2.97154">
        <ele>1149.9858116125</ele>
        <time>2019-04-28T08:16:03Z</time>
      </trkpt>
      <trkpt lat="45.79685" lon="2.97155">
        <ele>1149.5870748027</ele>
        <time>2019-04-28T08:16:12Z</time>
      </trkpt>
      <trkpt lat="45.79675" lon="2.97161">
        <ele>1149.1241556573</ele>
        <time>2019-04-28T08:16:21Z</time>
      </trkpt>
      <trkpt lat="45.79673" lon="2.97171">
        <ele>1148.5956911888</ele>
        <time>2019-04-28T08:16:30Z</time>
      </trkpt>
      <trkpt lat="45.79676" lon="2.97182">
        <ele>1148.0888889129</ele>
        <time>2019-04-28T08:16:39Z</time>
      </trkpt>
      <trkpt lat="45.79679" lon="2.97191">
        <ele>1147.6151734758</ele>
        <time>2019-04-28T08:16:48Z</time>
      </trkpt>
      <trkpt lat="45.79686" lon="2.97202">
        <ele>1147.1848435685</ele>
        <time>2019-04-28T08:16:57Z</time>
      </trkpt>
      <trkpt lat="45.79691" lon="2.97206">
        <ele>1146.9840448829</ele>
        <time>2019-04-28T08:17:06Z</time>
      </trkpt>
      <trkpt lat="45.79697" lon="2.97206">
        <ele>1146.4859801522</ele>
        <time>2019-04-28T08:17:15Z</time>
      </trkpt>
      <trkpt lat="45.79704" lon="2.97214">
        <ele>1145.970841806</ele>
        <time>2019-04-28T08:17:25Z</time>
      </trkpt>
      <trkpt lat="45.7971" lon="2.97218">
        <ele>1145.5109336217</ele>
        <time>2019-04-28T08:17:35Z</time>
      </trkpt>
      <trkpt lat="45.79714" lon="2.97218">
        <ele>1145.260584494</ele>
        <time>2019-04-28T08:17:44Z</time>
      </trkpt>
      <trkpt lat="45.79722" lon="2.97221">
        <ele>1144.8524723418</ele>
        <time>2019-04-28T08:17:53Z</time>
      </trkpt>
      <trkpt lat="45.79721" lon="2.9722">
        <ele>1144.5386239502</ele>
        <time>2019-04-28T08:18:02Z</time>
      </trkpt>
      <trkpt lat="45.79727" lon="2.97219">
        <ele>1144.2180677392</ele>
        <time>2019-04-28T08:18:12Z</time>
      </trkpt>
      <trkpt lat="45.79735" lon="2.97217">
        <ele>1143.9817674009</ele>
        <time>2019-04-28T08:18:21Z</time>
      </trkpt>
      <trkpt lat="45.79745" lon="2.97215">
        <ele>1143.7947726134</ele>
        <time>2019-04-28T08:18:30Z</time>
      </trkpt>
      <trkpt lat="45.79754" lon="2.97207">
        <ele>1143.6482969071</ele>
        <time>2019-04-28T08:18:39Z</time>
      </trkpt>
      <trkpt lat="45.79765" lon="2.972">
        <ele>1143.5839948769</ele>
        <time>2019-04-28T08:18:48Z</time>
      </trkpt>
      <trkpt lat="45.79769" lon="2.97195">
        <ele>1143.5153108607</ele>
        <time>2019-04-28T08:18:56Z</time>
      </trkpt>
      <trkpt lat="45.79776" lon="2.97186">
        <ele>1143.4495273021</ele>
        <time>2019-04-28T08:19:05Z</time>
      </trkpt>
      <trkpt lat="45.7978" lon="2.9718">
        <ele>1143.4102239356</ele>
        <time>2019-04-28T08:19:14Z</time>
      </trkpt>
      <trkpt lat="45.79783" lon="2.97175">
        <ele>1143.4019656533</ele>
        <time>2019-04-28T08:19:24Z</time>
      </trkpt>
      <trkpt lat="45.79785" lon="2.97165">
        <ele>1143.4228805325</ele>
        <time>2019-04-28T08:19:33Z</time>
      </trkpt>
      <trkpt lat="45.79788" lon="2.97155">
        <ele>1143.5072777306</ele>
        <time>2019-04-28T08:19:43Z</time>
      </trkpt>
      <trkpt lat="45.79792" lon="2.97143">
        <ele>1143.6626900479</ele>
        <time>2019-04-28T08:19:53Z</time>
      </trkpt>
      <trkpt lat="45.79791" lon="2.97133">
        <ele>1143.8495561194</ele>
        <time>2019-04-28T08:20:02Z</time>
      </trkpt>
      <trkpt lat="45.79792" lon="2.97123">
        <ele>1144.054625137</ele>
        <time>2019-04-28T08:20:11Z</time>
      </trkpt>
      <trkpt lat="45.79791" lon="2.9711">
        <ele>1144.2918802202</ele>
        <time>2019-04-28T08:20:20Z</time>
      </trkpt>
      <trkpt lat="45.79789" lon="2.97097">
        <ele>1144.6244229561</ele>
        <time>2019-04-28T08:20:30Z</time>
      </trkpt>
      <trkpt lat="45.79787" lon="2.97088">
        <ele>1145.0305674503</ele>
        <time>2019-04-28T08:20:39Z</time>
      </trkpt>
      <trkpt lat="45.79785" lon="2.97076">
        <ele>1145.4469685423</ele>
        <time>2019-04-28T08:20:48Z</time>
      </trkpt>
      <trkpt lat="45.79784" lon="2.97075">
        <ele>1145.6812883458</ele>
        <time>2019-04-28T08:20:58Z</time>
      </trkpt>
      <trkpt lat="45.79784" lon="2.97074">
        <ele>1145.7719667169</ele>
        <time>2019-04-28T08:21:13Z</time>
      </trkpt>
      <trkpt lat="45.79784" lon="2.97073">
        <ele>1146.4104556085</ele>
        <time>2019-04-28T08:21:48Z</time>
      </trkpt>
      <trkpt lat="45.79784" lon="2.97072">
        <ele>1146.7756222193</ele>
        <time>2019-04-28T08:22:01Z</time>
      </trkpt>
      <trkpt lat="45.79784" lon="2.97072">
        <ele>1147.5994358483</ele>
        <time>2019-04-28T08:23:17Z</time>
      </trkpt>
      <trkpt lat="45.79784" lon="2.9707">
        <ele>1147.8579664855</ele>
        <time>2019-04-28T08:23:26Z</time>
      </trkpt>
      <trkpt lat="45.79783" lon="2.97068">
        <ele>1148.4028930021</ele>
        <time>2019-04-28T08:23:36Z</time>
      </trkpt>
      <trkpt lat="45.79783" lon="2.9707">
        <ele>1148.8206628591</ele>
        <time>2019-04-28T08:23:45Z</time>
      </trkpt>
      <trkpt lat="45.79782" lon="2.97071">
        <ele>1149.0813355566</ele>
        <time>2019-04-28T08:24:16Z</time>
      </trkpt>
      <trkpt lat="45.79782" lon="2.97069">
        <ele>1149.3974464451</ele>
        <time>2019-04-28T08:24:25Z</time>
      </trkpt>
      <trkpt lat="45.79781" lon="2.97068">
        <ele>1149.5602489512</ele>
        <time>2019-04-28T08:24:42Z</time>
      </trkpt>
      <trkpt lat="45.7978" lon="2.97067">
        <ele>1149.706949946</ele>
        <time>2019-04-28T08:24:50Z</time>
      </trkpt>
      <trkpt lat="45.79779" lon="2.97068">
        <ele>1149.7778936791</ele>
        <time>2019-04-28T08:24:59Z</time>
      </trkpt>
      <trkpt lat="45.79779" lon="2.97069">
        <ele>1149.8801242108</ele>
        <time>2019-04-28T08:25:08Z</time>
      </trkpt>
      <trkpt lat="45.79779" lon="2.97068">
        <ele>1150.3857601076</ele>
        <time>2019-04-28T08:25:23Z</time>
      </trkpt>
      <trkpt lat="45.7978" lon="2.97062">
        <ele>1150.6170983801</ele>
        <time>2019-04-28T08:25:31Z</time>
      </trkpt>
      <trkpt lat="45.79782" lon="2.97055">
        <ele>1150.7946393501</ele>
        <time>2019-04-28T08:25:41Z</time>
      </trkpt>
      <trkpt lat="45.79783" lon="2.97053">
        <ele>1150.9219551233</ele>
        <time>2019-04-28T08:25:50Z</time>
      </trkpt>
      <trkpt lat="45.79784" lon="2.97054">
        <ele>1150.9633028217</ele>
        <time>2019-04-28T08:26:02Z</time>
      </trkpt>
      <trkpt lat="45.79785" lon="2.97054">
        <ele>1150.9956684817</ele>
        <time>2019-04-28T08:26:11Z</time>
      </trkpt>
      <trkpt lat="45.79786" lon="2.97055">
        <ele>1151.0977145463</ele>
        <time>2019-04-28T08:26:20Z</time>
      </trkpt>
      <trkpt lat="45.79786" lon="2.97054">
        <ele>1151.1787372403</ele>
        <time>2019-04-28T08:26:32Z</time>
      </trkpt>
      <trkpt lat="45.79786" lon="2.97055">
        <ele>1151.4712311608</ele>
        <time>2019-04-28T08:26:55Z</time>
      </trkpt>
      <trkpt lat="45.79789" lon="2.97067">
        <ele>1151.7723157271</ele>
        <time>2019-04-28T08:27:04Z</time>
      </trkpt>
      <trkpt lat="45.79793" lon="2.97078">
        <ele>1152.047935051</ele>
        <time>2019-04-28T08:27:14Z</time>
      </trkpt>
      <trkpt lat="45.79796" lon="2.9709">
        <ele>1152.2983716164</ele>
        <time>2019-04-28T08:27:24Z</time>
      </trkpt>
      <trkpt lat="45.79803" lon="2.97098">
        <ele>1152.5579486213</ele>
        <time>2019-04-28T08:27:34Z</time>
      </trkpt>
      <trkpt lat="45.79807" lon="2.97105">
        <ele>1152.7524029609</ele>
        <time>2019-04-28T08:27:42Z</time>
      </trkpt>
      <trkpt lat="45.79811" lon="2.97118">
        <ele>1152.9698027726</ele>
        <time>2019-04-28T08:27:52Z</time>
      </trkpt>
      <trkpt lat="45.79816" lon="2.9713">
        <ele>1153.1496641774</ele>
        <time>2019-04-28T08:28:01Z</time>
      </trkpt>
      <trkpt lat="45.79815" lon="2.9714">
        <ele>1153.3105707136</ele>
        <time>2019-04-28T08:28:09Z</time>
      </trkpt>
      <trkpt lat="45.7982" lon="2.97151">
        <ele>1153.4929942476</ele>
        <time>2019-04-28T08:28:18Z</time>
      </trkpt>
      <trkpt lat="45.79821" lon="2.97167">
        <ele>1153.6787458215</ele>
        <time>2019-04-28T08:28:27Z</time>
      </trkpt>
      <trkpt lat="45.79822" lon="2.97188">
        <ele>1153.8487154999</ele>
        <time>2019-04-28T08:28:36Z</time>
      </trkpt>
      <trkpt lat="45.79823" lon="2.97196">
        <ele>1154.0060110768</ele>
        <time>2019-04-28T08:28:46Z</time>
      </trkpt>
      <trkpt lat="45.79821" lon="2.97199">
        <ele>1154.1735362881</ele>
        <time>2019-04-28T08:28:55Z</time>
      </trkpt>
      <trkpt lat="45.79821" lon="2.97208">
        <ele>1154.3879919806</ele>
        <time>2019-04-28T08:29:04Z</time>
      </trkpt>
      <trkpt lat="45.79819" lon="2.97219">
        <ele>1154.6360444428</ele>
        <time>2019-04-28T08:29:13Z</time>
      </trkpt>
      <trkpt lat="45.79817" lon="2.97234">
        <ele>1154.9473326782</ele>
        <time>2019-04-28T08:29:23Z</time>
      </trkpt>
      <trkpt lat="45.79815" lon="2.97242">
        <ele>1155.2040024477</ele>
        <time>2019-04-28T08:29:31Z</time>
      </trkpt>
      <trkpt lat="45.79811" lon="2.97253">
        <ele>1155.5195120685</ele>
        <time>2019-04-28T08:29:40Z</time>
      </trkpt>
      <trkpt lat="45.79808" lon="2.97261">
        <ele>1155.8437604926</ele>
        <time>2019-04-28T08:29:49Z</time>
      </trkpt>
      <trkpt lat="45.79803" lon="2.97275">
        <ele>1156.1630948926</ele>
        <time>2019-04-28T08:29:58Z</time>
      </trkpt>
      <trkpt lat="45.79798" lon="2.97288">
        <ele>1156.4791737136</ele>
        <time>2019-04-28T08:30:07Z</time>
      </trkpt>
      <trkpt lat="45.79793" lon="2.97296">
        <ele>1156.7876957063</ele>
        <time>2019-04-28T08:30:15Z</time>
      </trkpt>
      <trkpt lat="45.79787" lon="2.97308">
        <ele>1157.2055937271</ele>
        <time>2019-04-28T08:30:25Z</time>
      </trkpt>
      <trkpt lat="45.79781" lon="2.97315">
        <ele>1157.5997529296</ele>
        <time>2019-04-28T08:30:34Z</time>
      </trkpt>
      <trkpt lat="45.79775" lon="2.97324">
        <ele>1158.0522636683</ele>
        <time>2019-04-28T08:30:44Z</time>
      </trkpt>
      <trkpt lat="45.79771" lon="2.97331">
        <ele>1158.4757162276</ele>
        <time>2019-04-28T08:30:53Z</time>
      </trkpt>
      <trkpt lat="45.79764" lon="2.97339">
        <ele>1158.9648010666</ele>
        <time>2019-04-28T08:31:03Z</time>
      </trkpt>
      <trkpt lat="45.79758" lon="2.97347">
        <ele>1159.4263509639</ele>
        <time>2019-04-28T08:31:12Z</time>
      </trkpt>
      <trkpt lat="45.79752" lon="2.97351">
        <ele>1159.9103482977</ele>
        <time>2019-04-28T08:31:21Z</time>
      </trkpt>
      <trkpt lat="45.79744" lon="2.97356">
        <ele>1160.4149730385</ele>
        <time>2019-04-28T08:31:30Z</time>
      </trkpt>
      <trkpt lat="45.79735" lon="2.97361">
        <ele>1160.9295033479</ele>
        <time>2019-04-28T08:31:39Z</time>
      </trkpt>
      <trkpt lat="45.79726" lon="2.97365">
        <ele>1161.4904994223</ele>
        <time>2019-04-28T08:31:49Z</time>
      </trkpt>
      <trkpt lat="45.79717" lon="2.97369">
        <ele>1162.0552515311</ele>
        <time>2019-04-28T08:31:59Z</time>
      </trkpt>
      <trkpt lat="45.79708" lon="2.97375">
        <ele>1162.5600651194</ele>
        <time>2019-04-28T08:32:08Z</time>
      </trkpt>
      <trkpt lat="45.79697" lon="2.97377">
        <ele>1163.1300708087</ele>
        <time>2019-04-28T08:32:18Z</time>
      </trkpt>
      <trkpt lat="45.79688" lon="2.97379">
        <ele>1163.5957210129</ele>
        <time>2019-04-28T08:32:26Z</time>
      </trkpt>
      <trkpt lat="45.79678" lon="2.97379">
        <ele>1164.1824817493</ele>
        <time>2019-04-28T08:32:36Z</time>
      </trkpt>
      <trkpt lat="45.79672" lon="2.97376">
        <ele>1164.7124887258</ele>
        <time>2019-04-28T08:32:45Z</time>
      </trkpt>
      <trkpt lat="45.79664" lon="2.97375">
        <ele>1165.2312565942</ele>
        <time>2019-04-28T08:32:54Z</time>
      </trkpt>
      <trkpt lat="45.79656" lon="2.97375">
        <ele>1165.7848759007</ele>
        <time>2019-04-28T08:33:04Z</time>
      </trkpt>
      <trkpt lat="45.79647" lon="2.97374">
        <ele>1166.2510694115</ele>
        <time>2019-04-28T08:33:13Z</time>
      </trkpt>
      <trkpt lat="45.79642" lon="2.97375">
        <ele>1166.7560228059</ele>
        <time>2019-04-28T08:33:23Z</time>
      </trkpt>
      <trkpt lat="45.79635" lon="2.97372">
        <ele>1167.1932907415</ele>
        <time>2019-04-28T08:33:32Z</time>
      </trkpt>
      <trkpt lat="45.79629" lon="2.97367">
        <ele>1167.6296370774</ele>
        <time>2019-04-28T08:33:42Z</time>
      </trkpt>
      <trkpt lat="45.79627" lon="2.97369">
        <ele>1168.0053623875</ele>
        <time>2019-04-28T08:33:51Z</time>
      </trkpt>
      <trkpt lat="45.79622" lon="2.97369">
        <ele>1168.4201952108</ele>
        <time>2019-04-28T08:34:01Z</time>
      </trkpt>
      <trkpt lat="45.79617" lon="2.97365">
        <ele>1168.7768831291</ele>
        <time>2019-04-28T08:34:10Z</time>
      </trkpt>
      <trkpt lat="45.79612" lon="2.97358">
        <ele>1169.1161042629</ele>
        <time>2019-04-28T08:34:19Z</time>
      </trkpt>
      <trkpt lat="45.79606" lon="2.97354">
        <ele>1169.3162502561</ele>
        <time>2019-04-28T08:34:28Z</time>
      </trkpt>
      <trkpt lat="45.79606" lon="2.97354">
        <ele>1169.5718632634</ele>
        <time>2019-04-28T08:35:19Z</time>
      </trkpt>
      <trkpt lat="45.79605" lon="2.97354">
        <ele>1169.7126033775</ele>
        <time>2019-04-28T08:35:46Z</time>
      </trkpt>
      <trkpt lat="45.79604" lon="2.97353">
        <ele>1169.7370775588</ele>
        <time>2019-04-28T08:35:54Z</time>
      </trkpt>
      <trkpt lat="45.79603" lon="2.97353">
        <ele>1169.8179942163</ele>
        <time>2019-04-28T08:36:11Z</time>
      </trkpt>
      <trkpt lat="45.79603" lon="2.97354">
        <ele>1169.8844023242</ele>
        <time>2019-04-28T08:36:22Z</time>
      </trkpt>
      <trkpt lat="45.79604" lon="2.97356">
        <ele>1169.9177603787</ele>
        <time>2019-04-28T08:36:32Z</time>
      </trkpt>
      <trkpt lat="45.79604" lon="2.97356">
        <ele>1170.0591306862</ele>
        <time>2019-04-28T08:36:55Z</time>
      </trkpt>
      <trkpt lat="45.79605" lon="2.97356">
        <ele>1170.2292652098</ele>
        <time>2019-04-28T08:37:08Z</time>
      </trkpt>
      <trkpt lat="45.79605" lon="2.97356">
        <ele>1170.4903031928</ele>
        <time>2019-04-28T08:37:18Z</time>
      </trkpt>
      <trkpt lat="45.796" lon="2.97351">
        <ele>1170.7648734367</ele>
        <time>2019-04-28T08:37:27Z</time>
      </trkpt>
      <trkpt lat="45.79596" lon="2.97348">
        <ele>1171.0016532868</ele>
        <time>2019-04-28T08:37:35Z</time>
      </trkpt>
      <trkpt lat="45.79589" lon="2.97344">
        <ele>1171.2471501766</ele>
        <time>2019-04-28T08:37:44Z</time>
      </trkpt>
      <trkpt lat="45.79582" lon="2.97337">
        <ele>1171.494555275</ele>
        <time>2019-04-28T08:37:54Z</time>
      </trkpt>
      <trkpt lat="45.79576" lon="2.97333">
        <ele>1171.6703853122</ele>
        <time>2019-04-28T08:38:02Z</time>
      </trkpt>
      <trkpt lat="45.7957" lon="2.97326">
        <ele>1171.8711164794</ele>
        <time>2019-04-28T08:38:12Z</time>
      </trkpt>
      <trkpt lat="45.79565" lon="2.97322">
        <ele>1172.03501173</ele>
        <time>2019-04-28T08:38:21Z</time>
      </trkpt>
      <trkpt lat="45.7956" lon="2.97316">
        <ele>1172.178475675</ele>
        <time>2019-04-28T08:38:30Z</time>
      </trkpt>
      <trkpt lat="45.79556" lon="2.97311">
        <ele>1172.2995735487</ele>
        <time>2019-04-28T08:38:39Z</time>
      </trkpt>
      <trkpt lat="45.79551" lon="2.97304">
        <ele>1172.3950028919</ele>
        <time>2019-04-28T08:38:48Z</time>
      </trkpt>
      <trkpt lat="45.79548" lon="2.973">
        <ele>1172.4642533614</ele>
        <time>2019-04-28T08:38:58Z</time>
      </trkpt>
      <trkpt lat="45.79543" lon="2.97296">
        <ele>1172.5073073216</ele>
        <time>2019-04-28T08:39:06Z</time>
      </trkpt>
      <trkpt lat="45.79539" lon="2.9729">
        <ele>1172.531134061</ele>
        <time>2019-04-28T08:39:15Z</time>
      </trkpt>
      <trkpt lat="45.79533" lon="2.97284">
        <ele>1172.538355174</ele>
        <time>2019-04-28T08:39:24Z</time>
      </trkpt>
      <trkpt lat="45.79529" lon="2.97279">
        <ele>1172.5362390288</ele>
        <time>2019-04-28T08:39:34Z</time>
      </trkpt>
      <trkpt lat="45.79527" lon="2.97278">
        <ele>1172.5293052242</ele>
        <time>2019-04-28T08:39:43Z</time>
      </trkpt>
      <trkpt lat="45.79524" lon="2.97276">
        <ele>1172.5188754228</ele>
        <time>2019-04-28T08:39:53Z</time>
      </trkpt>
      <trkpt lat="45.79519" lon="2.97268">
        <ele>1172.4981738292</ele>
        <time>2019-04-28T08:40:03Z</time>
      </trkpt>
      <trkpt lat="45.79516" lon="2.97267">
        <ele>1172.4630943098</ele>
        <time>2019-04-28T08:40:12Z</time>
      </trkpt>
      <trkpt lat="45.7951" lon="2.97261">
        <ele>1172.4200481655</ele>
        <time>2019-04-28T08:40:21Z</time>
      </trkpt>
      <trkpt lat="45.79505" lon="2.97254">
        <ele>1172.378055943</ele>
        <time>2019-04-28T08:40:31Z</time>
      </trkpt>
      <trkpt lat="45.79501" lon="2.9725">
        <ele>1172.3448909063</ele>
        <time>2019-04-28T08:40:41Z</time>
      </trkpt>
      <trkpt lat="45.79494" lon="2.97244">
        <ele>1172.2779061126</ele>
        <time>2019-04-28T08:40:51Z</time>
      </trkpt>
      <trkpt lat="45.7949" lon="2.9724">
        <ele>1172.21220617</ele>
        <time>2019-04-28T08:41:00Z</time>
      </trkpt>
      <trkpt lat="45.79484" lon="2.97235">
        <ele>1172.1327113117</ele>
        <time>2019-04-28T08:41:10Z</time>
      </trkpt>
      <trkpt lat="45.79482" lon="2.97232">
        <ele>1172.0795190372</ele>
        <time>2019-04-28T08:41:18Z</time>
      </trkpt>
      <trkpt lat="45.79479" lon="2.97228">
        <ele>1172.01871497</ele>
        <time>2019-04-28T08:41:27Z</time>
      </trkpt>
      <trkpt lat="45.79473" lon="2.97222">
        <ele>1171.9665010981</ele>
        <time>2019-04-28T08:41:35Z</time>
      </trkpt>
      <trkpt lat="45.79468" lon="2.97218">
        <ele>1171.889519092</ele>
        <time>2019-04-28T08:41:45Z</time>
      </trkpt>
      <trkpt lat="45.79466" lon="2.97215">
        <ele>1171.798799347</ele>
        <time>2019-04-28T08:41:54Z</time>
      </trkpt>
      <trkpt lat="45.79464" lon="2.97211">
        <ele>1171.7178165585</ele>
        <time>2019-04-28T08:42:03Z</time>
      </trkpt>
      <trkpt lat="45.79459" lon="2.97204">
        <ele>1171.617203766</ele>
        <time>2019-04-28T08:42:13Z</time>
      </trkpt>
      <trkpt lat="45.79453" lon="2.97197">
        <ele>1171.5255267683</ele>
        <time>2019-04-28T08:42:22Z</time>
      </trkpt>
      <trkpt lat="45.79449" lon="2.9719">
        <ele>1171.4288237069</ele>
        <time>2019-04-28T08:42:32Z</time>
      </trkpt>
      <trkpt lat="45.79446" lon="2.97189">
        <ele>1171.3776591488</ele>
        <time>2019-04-28T08:42:41Z</time>
      </trkpt>
      <trkpt lat="45.79446" lon="2.97188">
        <ele>1171.3058690237</ele>
        <time>2019-04-28T08:43:00Z</time>
      </trkpt>
      <trkpt lat="45.79441" lon="2.97183">
        <ele>1171.1919866014</ele>
        <time>2019-04-28T08:43:09Z</time>
      </trkpt>
      <trkpt lat="45.79434" lon="2.97172">
        <ele>1171.0711341713</ele>
        <time>2019-04-28T08:43:19Z</time>
      </trkpt>
      <trkpt lat="45.7943" lon="2.97165">
        <ele>1170.9690636182</ele>
        <time>2019-04-28T08:43:28Z</time>
      </trkpt>
      <trkpt lat="45.79427" lon="2.97159">
        <ele>1170.8870392905</ele>
        <time>2019-04-28T08:43:36Z</time>
      </trkpt>
      <trkpt lat="45.79424" lon="2.97154">
        <ele>1170.8043757221</ele>
        <time>2019-04-28T08:43:45Z</time>
      </trkpt>
      <trkpt lat="45.79421" lon="2.97149">
        <ele>1170.7301228505</ele>
        <time>2019-04-28T08:43:54Z</time>
      </trkpt>
      <trkpt lat="45.79417" lon="2.97143">
        <ele>1170.6538398161</ele>
        <time>2019-04-28T08:44:03Z</time>
      </trkpt>
      <trkpt lat="45.79411" lon="2.97137">
        <ele>1170.5718427628</ele>
        <time>2019-04-28T08:44:13Z</time>
      </trkpt>
      <trkpt lat="45.79408" lon="2.97132">
        <ele>1170.50202165</ele>
        <time>2019-04-28T08:44:22Z</time>
      </trkpt>
      <trkpt lat="45.79403" lon="2.97123">
        <ele>1170.4184691458</ele>
        <time>2019-04-28T08:44:32Z</time>
      </trkpt>
      <trkpt lat="45.79399" lon="2.97117">
        <ele>1170.3337141111</ele>
        <time>2019-04-28T08:44:41Z</time>
      </trkpt>
      <trkpt lat="45.79399" lon="2.97112">
        <ele>1170.2219274343</ele>
        <time>2019-04-28T08:44:51Z</time>
      </trkpt>
      <trkpt lat="45.79399" lon="2.97107">
        <ele>1170.084722736</ele>
        <time>2019-04-28T08:45:01Z</time>
      </trkpt>
      <trkpt lat="45.79395" lon="2.97097">
        <ele>1169.8911402493</ele>
        <time>2019-04-28T08:45:11Z</time>
      </trkpt>
      <trkpt lat="45.79391" lon="2.9709">
        <ele>1169.7147389832</ele>
        <time>2019-04-28T08:45:19Z</time>
      </trkpt>
      <trkpt lat="45.79388" lon="2.97084">
        <ele>1169.5157485264</ele>
        <time>2019-04-28T08:45:29Z</time>
      </trkpt>
      <trkpt lat="45.79385" lon="2.97074">
        <ele>1169.3323049811</ele>
        <time>2019-04-28T08:45:38Z</time>
      </trkpt>
      <trkpt lat="45.79384" lon="2.97071">
        <ele>1169.067668167</ele>
        <time>2019-04-28T08:45:47Z</time>
      </trkpt>
      <trkpt lat="45.79381" lon="2.97061">
        <ele>1168.6647877056</ele>
        <time>2019-04-28T08:45:56Z</time>
      </trkpt>
      <trkpt lat="45.79379" lon="2.97053">
        <ele>1168.0031026067</ele>
        <time>2019-04-28T08:46:05Z</time>
      </trkpt>
      <trkpt lat="45.79376" lon="2.97044">
        <ele>1167.1806266245</ele>
        <time>2019-04-28T08:46:13Z</time>
      </trkpt>
      <trkpt lat="45.79374" lon="2.97035">
        <ele>1165.948836298</ele>
        <time>2019-04-28T08:46:23Z</time>
      </trkpt>
      <trkpt lat="45.79369" lon="2.97026">
        <ele>1164.7423503699</ele>
        <time>2019-04-28T08:46:32Z</time>
      </trkpt>
      <trkpt lat="45.79367" lon="2.9702">
        <ele>1163.4583591613</ele>
        <time>2019-04-28T08:46:41Z</time>
      </trkpt>
      <trkpt lat="45.79366" lon="2.97017">
        <ele>1162.1407123425</ele>
        <time>2019-04-28T08:46:50Z</time>
      </trkpt>
      <trkpt lat="45.79365" lon="2.97014">
        <ele>1160.7825405429</ele>
        <time>2019-04-28T08:46:59Z</time>
      </trkpt>
      <trkpt lat="45.79361" lon="2.97008">
        <ele>1159.6504226085</ele>
        <time>2019-04-28T08:47:07Z</time>
      </trkpt>
      <trkpt lat="45.7936" lon="2.97006">
        <ele>1158.6757565741</ele>
        <time>2019-04-28T08:47:15Z</time>
      </trkpt>
      <trkpt lat="45.79356" lon="2.97001">
        <ele>1157.5027288664</ele>
        <time>2019-04-28T08:47:24Z</time>
      </trkpt>
      <trkpt lat="45.79353" lon="2.96998">
        <ele>1156.6534026769</ele>
        <time>2019-04-28T08:47:33Z</time>
      </trkpt>
      <trkpt lat="45.79353" lon="2.96997">
        <ele>1156.2318594862</ele>
        <time>2019-04-28T08:47:42Z</time>
      </trkpt>
      <trkpt lat="45.79352" lon="2.96996">
        <ele>1155.7940732928</ele>
        <time>2019-04-28T08:47:51Z</time>
      </trkpt>
      <trkpt lat="45.7935" lon="2.96988">
        <ele>1154.5463994552</ele>
        <time>2019-04-28T08:48:01Z</time>
      </trkpt>
      <trkpt lat="45.79348" lon="2.96978">
        <ele>1153.3839428343</ele>
        <time>2019-04-28T08:48:10Z</time>
      </trkpt>
      <trkpt lat="45.79349" lon="2.96969">
        <ele>1151.9708645193</ele>
        <time>2019-04-28T08:48:20Z</time>
      </trkpt>
      <trkpt lat="45.79351" lon="2.96961">
        <ele>1150.8748132301</ele>
        <time>2019-04-28T08:48:29Z</time>
      </trkpt>
      <trkpt lat="45.79351" lon="2.96958">
        <ele>1149.9557299996</ele>
        <time>2019-04-28T08:48:37Z</time>
      </trkpt>
      <trkpt lat="45.79353" lon="2.96953">
        <ele>1148.8551100554</ele>
        <time>2019-04-28T08:48:47Z</time>
      </trkpt>
      <trkpt lat="45.79358" lon="2.96944">
        <ele>1147.9302252443</ele>
        <time>2019-04-28T08:48:56Z</time>
      </trkpt>
      <trkpt lat="45.79359" lon="2.9694">
        <ele>1147.4545417012</ele>
        <time>2019-04-28T08:49:05Z</time>
      </trkpt>
      <trkpt lat="45.7936" lon="2.96936">
        <ele>1147.084776694</ele>
        <time>2019-04-28T08:49:15Z</time>
      </trkpt>
      <trkpt lat="45.79357" lon="2.96925">
        <ele>1146.3603483662</ele>
        <time>2019-04-28T08:49:24Z</time>
      </trkpt>
      <trkpt lat="45.79356" lon="2.96924">
        <ele>1146.1052953231</ele>
        <time>2019-04-28T08:49:33Z</time>
      </trkpt>
      <trkpt lat="45.79353" lon="2.96921">
        <ele>1145.5939550846</ele>
        <time>2019-04-28T08:49:42Z</time>
      </trkpt>
      <trkpt lat="45.79349" lon="2.96917">
        <ele>1145.3297049878</ele>
        <time>2019-04-28T08:49:51Z</time>
      </trkpt>
      <trkpt lat="45.79349" lon="2.96916">
        <ele>1144.8924639211</ele>
        <time>2019-04-28T08:50:08Z</time>
      </trkpt>
      <trkpt lat="45.7935" lon="2.96915">
        <ele>1144.2574483603</ele>
        <time>2019-04-28T08:50:18Z</time>
      </trkpt>
      <trkpt lat="45.79349" lon="2.96914">
        <ele>1143.5047699763</ele>
        <time>2019-04-28T08:50:41Z</time>
      </trkpt>
      <trkpt lat="45.79349" lon="2.96913">
        <ele>1143.0015519767</ele>
        <time>2019-04-28T08:50:51Z</time>
      </trkpt>
      <trkpt lat="45.79348" lon="2.96913">
        <ele>1142.585894369</ele>
        <time>2019-04-28T08:51:04Z</time>
      </trkpt>
      <trkpt lat="45.79347" lon="2.96913">
        <ele>1142.0487569791</ele>
        <time>2019-04-28T08:51:21Z</time>
      </trkpt>
      <trkpt lat="45.79346" lon="2.96913">
        <ele>1141.3292080798</ele>
        <time>2019-04-28T08:51:30Z</time>
      </trkpt>
      <trkpt lat="45.79345" lon="2.96907">
        <ele>1140.3177549829</ele>
        <time>2019-04-28T08:51:39Z</time>
      </trkpt>
      <trkpt lat="45.79346" lon="2.96907">
        <ele>1139.0582336231</ele>
        <time>2019-04-28T08:51:48Z</time>
      </trkpt>
      <trkpt lat="45.7935" lon="2.96907">
        <ele>1138.0563150517</ele>
        <time>2019-04-28T08:51:58Z</time>
      </trkpt>
      <trkpt lat="45.79346" lon="2.96912">
        <ele>1136.9461973708</ele>
        <time>2019-04-28T08:52:06Z</time>
      </trkpt>
      <trkpt lat="45.79343" lon="2.96911">
        <ele>1136.5876144364</ele>
        <time>2019-04-28T08:52:14Z</time>
      </trkpt>
      <trkpt lat="45.79341" lon="2.96911">
        <ele>1135.9952229138</ele>
        <time>2019-04-28T08:52:23Z</time>
      </trkpt>
      <trkpt lat="45.79341" lon="2.96911">
        <ele>1135.867458562</ele>
        <time>2019-04-28T08:52:32Z</time>
      </trkpt>
      <trkpt lat="45.7934" lon="2.96911">
        <ele>1135.0095551208</ele>
        <time>2019-04-28T08:52:41Z</time>
      </trkpt>
      <trkpt lat="45.79339" lon="2.9691">
        <ele>1134.6092901706</ele>
        <time>2019-04-28T08:53:02Z</time>
      </trkpt>
      <trkpt lat="45.7934" lon="2.96909">
        <ele>1133.5534181639</ele>
        <time>2019-04-28T08:53:12Z</time>
      </trkpt>
      <trkpt lat="45.7934" lon="2.9691">
        <ele>1132.2188914471</ele>
        <time>2019-04-28T08:53:27Z</time>
      </trkpt>
      <trkpt lat="45.7934" lon="2.96912">
        <ele>1131.2393117039</ele>
        <time>2019-04-28T08:53:36Z</time>
      </trkpt>
      <trkpt lat="45.79339" lon="2.96911">
        <ele>1130.7185463</ele>
        <time>2019-04-28T08:53:45Z</time>
      </trkpt>
      <trkpt lat="45.79337" lon="2.96909">
        <ele>1130.338629141</ele>
        <time>2019-04-28T08:53:54Z</time>
      </trkpt>
      <trkpt lat="45.79336" lon="2.9691">
        <ele>1129.6015981693</ele>
        <time>2019-04-28T08:54:20Z</time>
      </trkpt>
      <trkpt lat="45.79336" lon="2.96911">
        <ele>1128.7475217219</ele>
        <time>2019-04-28T08:54:32Z</time>
      </trkpt>
      <trkpt lat="45.79337" lon="2.96911">
        <ele>1128.4180958448</ele>
        <time>2019-04-28T08:54:41Z</time>
      </trkpt>
      <trkpt lat="45.79337" lon="2.96909">
        <ele>1127.3816219286</ele>
        <time>2019-04-28T08:54:50Z</time>
      </trkpt>
      <trkpt lat="45.79337" lon="2.9691">
        <ele>1126.8843669392</ele>
        <time>2019-04-28T08:55:01Z</time>
      </trkpt>
      <trkpt lat="45.79337" lon="2.96911">
        <ele>1126.1343009723</ele>
        <time>2019-04-28T08:55:21Z</time>
      </trkpt>
      <trkpt lat="45.79336" lon="2.96913">
        <ele>1125.8642142759</ele>
        <time>2019-04-28T08:55:31Z</time>
      </trkpt>
      <trkpt lat="45.79336" lon="2.96914">
        <ele>1125.358324195</ele>
        <time>2019-04-28T08:55:40Z</time>
      </trkpt>
      <trkpt lat="45.79336" lon="2.96914">
        <ele>1124.0129681755</ele>
        <time>2019-04-28T08:56:17Z</time>
      </trkpt>
      <trkpt lat="45.79337" lon="2.96914">
        <ele>1123.7779812908</ele>
        <time>2019-04-28T08:56:29Z</time>
      </trkpt>
      <trkpt lat="45.79338" lon="2.96912">
        <ele>1123.308989475</ele>
        <time>2019-04-28T08:56:38Z</time>
      </trkpt>
      <trkpt lat="45.79339" lon="2.96912">
        <ele>1123.0008059623</ele>
        <time>2019-04-28T08:57:02Z</time>
      </trkpt>
      <trkpt lat="45.79339" lon="2.96913">
        <ele>1122.5728203909</ele>
        <time>2019-04-28T08:57:14Z</time>
      </trkpt>
      <trkpt lat="45.79339" lon="2.96915">
        <ele>1122.2982370598</ele>
        <time>2019-04-28T08:57:24Z</time>
      </trkpt>
      <trkpt lat="45.79338" lon="2.96915">
        <ele>1121.9345189108</ele>
        <time>2019-04-28T08:57:37Z</time>
      </trkpt>
      <trkpt lat="45.79338" lon="2.96915">
        <ele>1121.0260371462</ele>
        <time>2019-04-28T08:58:05Z</time>
      </trkpt>
      <trkpt lat="45.79338" lon="2.96912">
        <ele>1120.7603149703</ele>
        <time>2019-04-28T08:58:15Z</time>
      </trkpt>
      <trkpt lat="45.79338" lon="2.96911">
        <ele>1120.5216517046</ele>
        <time>2019-04-28T08:58:31Z</time>
      </trkpt>
      <trkpt lat="45.79339" lon="2.96911">
        <ele>1120.2036724312</ele>
        <time>2019-04-28T08:58:39Z</time>
      </trkpt>
      <trkpt lat="45.79341" lon="2.96912">
        <ele>1119.8763780807</ele>
        <time>2019-04-28T08:58:48Z</time>
      </trkpt>
      <trkpt lat="45.79342" lon="2.96911">
        <ele>1119.7572783096</ele>
        <time>2019-04-28T08:58:58Z</time>
      </trkpt>
      <trkpt lat="45.79343" lon="2.96911">
        <ele>1119.5670498886</ele>
        <time>2019-04-28T08:59:08Z</time>
      </trkpt>
      <trkpt lat="45.79345" lon="2.96912">
        <ele>1119.3886285777</ele>
        <time>2019-04-28T08:59:17Z</time>
      </trkpt>
      <trkpt lat="45.79346" lon="2.96909">
        <ele>1119.1011211428</ele>
        <time>2019-04-28T08:59:26Z</time>
      </trkpt>
      <trkpt lat="45.79343" lon="2.96911">
        <ele>1118.836910525</ele>
        <time>2019-04-28T08:59:34Z</time>
      </trkpt>
      <trkpt lat="45.79336" lon="2.96913">
        <ele>1118.519606215</ele>
        <time>2019-04-28T08:59:44Z</time>
      </trkpt>
      <trkpt lat="45.79329" lon="2.96917">
        <ele>1118.2086452773</ele>
        <time>2019-04-28T08:59:54Z</time>
      </trkpt>
      <trkpt lat="45.79322" lon="2.96924">
        <ele>1117.9492750907</ele>
        <time>2019-04-28T09:00:02Z</time>
      </trkpt>
      <trkpt lat="45.79316" lon="2.9694">
        <ele>1117.6219363418</ele>
        <time>2019-04-28T09:00:12Z</time>
      </trkpt>
      <trkpt lat="45.79313" lon="2.96954">
        <ele>1117.3453851285</ele>
        <time>2019-04-28T09:00:21Z</time>
      </trkpt>
      <trkpt lat="45.7931" lon="2.96962">
        <ele>1117.0946440718</ele>
        <time>2019-04-28T09:00:30Z</time>
      </trkpt>
      <trkpt lat="45.79309" lon="2.96963">
        <ele>1116.7847634336</ele>
        <time>2019-04-28T09:00:49Z</time>
      </trkpt>
      <trkpt lat="45.79307" lon="2.96974">
        <ele>1116.4431903236</ele>
        <time>2019-04-28T09:00:58Z</time>
      </trkpt>
      <trkpt lat="45.79305" lon="2.96981">
        <ele>1116.0553617964</ele>
        <time>2019-04-28T09:01:08Z</time>
      </trkpt>
      <trkpt lat="45.79301" lon="2.96991">
        <ele>1115.7676876273</ele>
        <time>2019-04-28T09:01:16Z</time>
      </trkpt>
      <trkpt lat="45.79296" lon="2.97004">
        <ele>1115.435541994</ele>
        <time>2019-04-28T09:01:25Z</time>
      </trkpt>
      <trkpt lat="45.7929" lon="2.97017">
        <ele>1115.0881406831</ele>
        <time>2019-04-28T09:01:34Z</time>
      </trkpt>
      <trkpt lat="45.79284" lon="2.97029">
        <ele>1114.7281935675</ele>
        <time>2019-04-28T09:01:43Z</time>
      </trkpt>
      <trkpt lat="45.79281" lon="2.97039">
        <ele>1114.3764454971</ele>
        <time>2019-04-28T09:01:52Z</time>
      </trkpt>
      <trkpt lat="45.79277" lon="2.97049">
        <ele>1114.0281916499</ele>
        <time>2019-04-28T09:02:01Z</time>
      </trkpt>
      <trkpt lat="45.79275" lon="2.97061">
        <ele>1113.6376329252</ele>
        <time>2019-04-28T09:02:11Z</time>
      </trkpt>
      <trkpt lat="45.79271" lon="2.9707">
        <ele>1113.2820797663</ele>
        <time>2019-04-28T09:02:20Z</time>
      </trkpt>
      <trkpt lat="45.79265" lon="2.97075">
        <ele>1112.9067079831</ele>
        <time>2019-04-28T09:02:28Z</time>
      </trkpt>
      <trkpt lat="45.79262" lon="2.97086">
        <ele>1112.3510295114</ele>
        <time>2019-04-28T09:02:38Z</time>
      </trkpt>
      <trkpt lat="45.79263" lon="2.971">
        <ele>1111.7229432752</ele>
        <time>2019-04-28T09:02:48Z</time>
      </trkpt>
      <trkpt lat="45.79265" lon="2.97102">
        <ele>1111.4674227496</ele>
        <time>2019-04-28T09:02:57Z</time>
      </trkpt>
      <trkpt lat="45.79267" lon="2.97112">
        <ele>1110.6998478195</ele>
        <time>2019-04-28T09:03:07Z</time>
      </trkpt>
      <trkpt lat="45.79262" lon="2.97124">
        <ele>1109.9382993843</ele>
        <time>2019-04-28T09:03:16Z</time>
      </trkpt>
      <trkpt lat="45.79262" lon="2.97128">
        <ele>1109.3863362323</ele>
        <time>2019-04-28T09:03:25Z</time>
      </trkpt>
      <trkpt lat="45.79262" lon="2.97129">
        <ele>1109.0087956837</ele>
        <time>2019-04-28T09:03:41Z</time>
      </trkpt>
      <trkpt lat="45.79263" lon="2.97132">
        <ele>1107.8957855936</ele>
        <time>2019-04-28T09:03:51Z</time>
      </trkpt>
      <trkpt lat="45.79262" lon="2.97137">
        <ele>1106.7161040874</ele>
        <time>2019-04-28T09:04:00Z</time>
      </trkpt>
      <trkpt lat="45.79261" lon="2.97137">
        <ele>1106.2959941375</ele>
        <time>2019-04-28T09:04:18Z</time>
      </trkpt>
      <trkpt lat="45.79259" lon="2.97145">
        <ele>1104.9973786501</ele>
        <time>2019-04-28T09:04:27Z</time>
      </trkpt>
      <trkpt lat="45.79259" lon="2.97155">
        <ele>1103.4909552274</ele>
        <time>2019-04-28T09:04:37Z</time>
      </trkpt>
      <trkpt lat="45.79258" lon="2.97168">
        <ele>1102.2351769451</ele>
        <time>2019-04-28T09:04:46Z</time>
      </trkpt>
      <trkpt lat="45.79259" lon="2.97176">
        <ele>1101.1744916009</ele>
        <time>2019-04-28T09:04:54Z</time>
      </trkpt>
      <trkpt lat="45.79258" lon="2.97185">
        <ele>1100.0192937624</ele>
        <time>2019-04-28T09:05:03Z</time>
      </trkpt>
      <trkpt lat="45.79258" lon="2.97193">
        <ele>1099.3258376325</ele>
        <time>2019-04-28T09:05:12Z</time>
      </trkpt>
      <trkpt lat="45.79253" lon="2.97203">
        <ele>1098.0190362499</ele>
        <time>2019-04-28T09:05:22Z</time>
      </trkpt>
      <trkpt lat="45.79251" lon="2.97219">
        <ele>1096.5201646594</ele>
        <time>2019-04-28T09:05:32Z</time>
      </trkpt>
      <trkpt lat="45.7925" lon="2.97231">
        <ele>1095.3603947914</ele>
        <time>2019-04-28T09:05:40Z</time>
      </trkpt>
      <trkpt lat="45.79247" lon="2.97246">
        <ele>1094.1056570648</ele>
        <time>2019-04-28T09:05:49Z</time>
      </trkpt>
      <trkpt lat="45.79244" lon="2.97257">
        <ele>1092.8710403346</ele>
        <time>2019-04-28T09:05:58Z</time>
      </trkpt>
      <trkpt lat="45.79239" lon="2.97272">
        <ele>1091.5259393585</ele>
        <time>2019-04-28T09:06:08Z</time>
      </trkpt>
      <trkpt lat="45.79239" lon="2.97284">
        <ele>1090.4553981189</ele>
        <time>2019-04-28T09:06:16Z</time>
      </trkpt>
      <trkpt lat="45.79239" lon="2.97296">
        <ele>1089.1745019811</ele>
        <time>2019-04-28T09:06:25Z</time>
      </trkpt>
      <trkpt lat="45.79239" lon="2.97307">
        <ele>1087.9194165197</ele>
        <time>2019-04-28T09:06:34Z</time>
      </trkpt>
      <trkpt lat="45.79238" lon="2.97316">
        <ele>1086.7294797033</ele>
        <time>2019-04-28T09:06:43Z</time>
      </trkpt>
      <trkpt lat="45.79237" lon="2.97325">
        <ele>1085.7374611298</ele>
        <time>2019-04-28T09:06:51Z</time>
      </trkpt>
      <trkpt lat="45.79234" lon="2.97337">
        <ele>1084.7418237547</ele>
        <time>2019-04-28T09:07:00Z</time>
      </trkpt>
      <trkpt lat="45.79234" lon="2.9735">
        <ele>1083.59136596</ele>
        <time>2019-04-28T09:07:10Z</time>
      </trkpt>
      <trkpt lat="45.79234" lon="2.97358">
        <ele>1082.4708315159</ele>
        <time>2019-04-28T09:07:19Z</time>
      </trkpt>
      <trkpt lat="45.79234" lon="2.97367">
        <ele>1081.0741502681</ele>
        <time>2019-04-28T09:07:29Z</time>
      </trkpt>
      <trkpt lat="45.79232" lon="2.9738">
        <ele>1079.6997327682</ele>
        <time>2019-04-28T09:07:38Z</time>
      </trkpt>
      <trkpt lat="45.79231" lon="2.97394">
        <ele>1078.1352266921</ele>
        <time>2019-04-28T09:07:47Z</time>
      </trkpt>
      <trkpt lat="45.7923" lon="2.97403">
        <ele>1076.1001768305</ele>
        <time>2019-04-28T09:07:57Z</time>
      </trkpt>
      <trkpt lat="45.79229" lon="2.9741">
        <ele>1074.1478213488</ele>
        <time>2019-04-28T09:08:05Z</time>
      </trkpt>
      <trkpt lat="45.79225" lon="2.97435">
        <ele>1071.8257034185</ele>
        <time>2019-04-28T09:08:15Z</time>
      </trkpt>
      <trkpt lat="45.79224" lon="2.97447">
        <ele>1069.8024079798</ele>
        <time>2019-04-28T09:08:24Z</time>
      </trkpt>
      <trkpt lat="45.79226" lon="2.97455">
        <ele>1067.9041905997</ele>
        <time>2019-04-28T09:08:33Z</time>
      </trkpt>
      <trkpt lat="45.79228" lon="2.97469">
        <ele>1066.3508706939</ele>
        <time>2019-04-28T09:08:41Z</time>
      </trkpt>
      <trkpt lat="45.79231" lon="2.97482">
        <ele>1064.501119005</ele>
        <time>2019-04-28T09:08:51Z</time>
      </trkpt>
      <trkpt lat="45.79231" lon="2.97493">
        <ele>1062.8411754591</ele>
        <time>2019-04-28T09:09:00Z</time>
      </trkpt>
      <trkpt lat="45.79232" lon="2.97508">
        <ele>1061.0704831889</ele>
        <time>2019-04-28T09:09:10Z</time>
      </trkpt>
      <trkpt lat="45.79233" lon="2.97516">
        <ele>1060.30591379</ele>
        <time>2019-04-28T09:09:19Z</time>
      </trkpt>
      <trkpt lat="45.79233" lon="2.97515">
        <ele>1059.210798329</ele>
        <time>2019-04-28T09:09:35Z</time>
      </trkpt>
      <trkpt lat="45.79232" lon="2.97513">
        <ele>1058.8736871359</ele>
        <time>2019-04-28T09:09:44Z</time>
      </trkpt>
      <trkpt lat="45.79233" lon="2.97514">
        <ele>1058.0451334458</ele>
        <time>2019-04-28T09:09:57Z</time>
      </trkpt>
      <trkpt lat="45.79234" lon="2.97514">
        <ele>1057.7519091357</ele>
        <time>2019-04-28T09:10:09Z</time>
      </trkpt>
      <trkpt lat="45.79234" lon="2.97515">
        <ele>1057.4150512067</ele>
        <time>2019-04-28T09:10:21Z</time>
      </trkpt>
      <trkpt lat="45.79234" lon="2.97514">
        <ele>1055.8797992061</ele>
        <time>2019-04-28T09:10:37Z</time>
      </trkpt>
      <trkpt lat="45.79235" lon="2.97514">
        <ele>1054.5637504981</ele>
        <time>2019-04-28T09:10:56Z</time>
      </trkpt>
      <trkpt lat="45.79236" lon="2.97515">
        <ele>1051.4361601921</ele>
        <time>2019-04-28T09:12:38Z</time>
      </trkpt>
      <trkpt lat="45.79237" lon="2.97515">
        <ele>1051.1499237082</ele>
        <time>2019-04-28T09:12:47Z</time>
      </trkpt>
      <trkpt lat="45.79238" lon="2.97517">
        <ele>1050.8290397562</ele>
        <time>2019-04-28T09:12:57Z</time>
      </trkpt>
      <trkpt lat="45.79238" lon="2.97517">
        <ele>1049.6883646335</ele>
        <time>2019-04-28T09:13:06Z</time>
      </trkpt>
      <trkpt lat="45.79239" lon="2.97517">
        <ele>1049.3185993855</ele>
        <time>2019-04-28T09:13:18Z</time>
      </trkpt>
      <trkpt lat="45.79241" lon="2.97517">
        <ele>1049.007306533</ele>
        <time>2019-04-28T09:13:28Z</time>
      </trkpt>
      <trkpt lat="45.79241" lon="2.97517">
        <ele>1047.9160884466</ele>
        <time>2019-04-28T09:13:37Z</time>
      </trkpt>
      <trkpt lat="45.79242" lon="2.97517">
        <ele>1047.6196311293</ele>
        <time>2019-04-28T09:13:47Z</time>
      </trkpt>
      <trkpt lat="45.79243" lon="2.97516">
        <ele>1046.7625425258</ele>
        <time>2019-04-28T09:13:57Z</time>
      </trkpt>
      <trkpt lat="45.79239" lon="2.97512">
        <ele>1045.4572621864</ele>
        <time>2019-04-28T09:14:06Z</time>
      </trkpt>
      <trkpt lat="45.79239" lon="2.97514">
        <ele>1043.7674575633</ele>
        <time>2019-04-28T09:14:15Z</time>
      </trkpt>
      <trkpt lat="45.7924" lon="2.97515">
        <ele>1043.5173893255</ele>
        <time>2019-04-28T09:14:25Z</time>
      </trkpt>
      <trkpt lat="45.7924" lon="2.97516">
        <ele>1042.9677816395</ele>
        <time>2019-04-28T09:14:38Z</time>
      </trkpt>
      <trkpt lat="45.7924" lon="2.97515">
        <ele>1042.1858486373</ele>
        <time>2019-04-28T09:14:58Z</time>
      </trkpt>
      <trkpt lat="45.7924" lon="2.97513">
        <ele>1041.6886232138</ele>
        <time>2019-04-28T09:15:07Z</time>
      </trkpt>
      <trkpt lat="45.79239" lon="2.97512">
        <ele>1041.2735004961</ele>
        <time>2019-04-28T09:15:22Z</time>
      </trkpt>
      <trkpt lat="45.7924" lon="2.97513">
        <ele>1040.5776131121</ele>
        <time>2019-04-28T09:15:47Z</time>
      </trkpt>
      <trkpt lat="45.7924" lon="2.97514">
        <ele>1040.3299969501</ele>
        <time>2019-04-28T09:15:56Z</time>
      </trkpt>
      <trkpt lat="45.79241" lon="2.97515">
        <ele>1040.0814055737</ele>
        <time>2019-04-28T09:16:05Z</time>
      </trkpt>
      <trkpt lat="45.7924" lon="2.97515">
        <ele>1037.8361796626</ele>
        <time>2019-04-28T09:16:33Z</time>
      </trkpt>
      <trkpt lat="45.7924" lon="2.97515">
        <ele>1034.4967356617</ele>
        <time>2019-04-28T09:17:09Z</time>
      </trkpt>
      <trkpt lat="45.79241" lon="2.97517">
        <ele>1034.0421826121</ele>
        <time>2019-04-28T09:17:22Z</time>
      </trkpt>
      <trkpt lat="45.7924" lon="2.97517">
        <ele>1033.0549126475</ele>
        <time>2019-04-28T09:17:46Z</time>
      </trkpt>
      <trkpt lat="45.79239" lon="2.97516">
        <ele>1032.8867186285</ele>
        <time>2019-04-28T09:17:55Z</time>
      </trkpt>
      <trkpt lat="45.79236" lon="2.97516">
        <ele>1032.5451197221</ele>
        <time>2019-04-28T09:18:04Z</time>
      </trkpt>
      <trkpt lat="45.79236" lon="2.97515">
        <ele>1031.5980903713</ele>
        <time>2019-04-28T09:18:26Z</time>
      </trkpt>
      <trkpt lat="45.79237" lon="2.97514">
        <ele>1031.2693329482</ele>
        <time>2019-04-28T09:18:35Z</time>
      </trkpt>
      <trkpt lat="45.79237" lon="2.97513">
        <ele>1030.3776069692</ele>
        <time>2019-04-28T09:18:51Z</time>
      </trkpt>
      <trkpt lat="45.79238" lon="2.97513">
        <ele>1030.0890934898</ele>
        <time>2019-04-28T09:19:00Z</time>
      </trkpt>
      <trkpt lat="45.79239" lon="2.97513">
        <ele>1029.5355304564</ele>
        <time>2019-04-28T09:19:26Z</time>
      </trkpt>
      <trkpt lat="45.7924" lon="2.97513">
        <ele>1028.8561485543</ele>
        <time>2019-04-28T09:20:09Z</time>
      </trkpt>
      <trkpt lat="45.79241" lon="2.97513">
        <ele>1028.5186408642</ele>
        <time>2019-04-28T09:20:21Z</time>
      </trkpt>
      <trkpt lat="45.79241" lon="2.97512">
        <ele>1027.2597631691</ele>
        <time>2019-04-28T09:20:44Z</time>
      </trkpt>
      <trkpt lat="45.7924" lon="2.97511">
        <ele>1027.0483818742</ele>
        <time>2019-04-28T09:21:00Z</time>
      </trkpt>
      <trkpt lat="45.7924" lon="2.97512">
        <ele>1026.89205932</ele>
        <time>2019-04-28T09:21:12Z</time>
      </trkpt>
      <trkpt lat="45.79235" lon="2.97513">
        <ele>1026.0041558003</ele>
        <time>2019-04-28T09:21:20Z</time>
      </trkpt>
      <trkpt lat="45.79233" lon="2.97525">
        <ele>1024.9757300046</ele>
        <time>2019-04-28T09:21:30Z</time>
      </trkpt>
      <trkpt lat="45.79232" lon="2.97539">
        <ele>1024.299702022</ele>
        <time>2019-04-28T09:21:38Z</time>
      </trkpt>
      <trkpt lat="45.79231" lon="2.97555">
        <ele>1023.6521673613</ele>
        <time>2019-04-28T09:21:48Z</time>
      </trkpt>
      <trkpt lat="45.79231" lon="2.97565">
        <ele>1023.2493263025</ele>
        <time>2019-04-28T09:21:56Z</time>
      </trkpt>
      <trkpt lat="45.79231" lon="2.97582">
        <ele>1022.8782027515</ele>
        <time>2019-04-28T09:22:06Z</time>
      </trkpt>
      <trkpt lat="45.7923" lon="2.97606">
        <ele>1022.647121178</ele>
        <time>2019-04-28T09:22:15Z</time>
      </trkpt>
      <trkpt lat="45.79229" lon="2.97622">
        <ele>1022.4526426109</ele>
        <time>2019-04-28T09:22:24Z</time>
      </trkpt>
      <trkpt lat="45.79229" lon="2.97639">
        <ele>1022.2786685893</ele>
        <time>2019-04-28T09:22:32Z</time>
      </trkpt>
      <trkpt lat="45.79229" lon="2.97653">
        <ele>1022.0740584458</ele>
        <time>2019-04-28T09:22:41Z</time>
      </trkpt>
      <trkpt lat="45.79228" lon="2.97665">
        <ele>1021.9092932584</ele>
        <time>2019-04-28T09:22:49Z</time>
      </trkpt>
      <trkpt lat="45.79227" lon="2.97677">
        <ele>1021.74729569</ele>
        <time>2019-04-28T09:22:58Z</time>
      </trkpt>
      <trkpt lat="45.79228" lon="2.97697">
        <ele>1021.595565472</ele>
        <time>2019-04-28T09:23:08Z</time>
      </trkpt>
      <trkpt lat="45.7923" lon="2.97714">
        <ele>1021.4970940337</ele>
        <time>2019-04-28T09:23:17Z</time>
      </trkpt>
      <trkpt lat="45.79232" lon="2.97729">
        <ele>1021.408739027</ele>
        <time>2019-04-28T09:23:27Z</time>
      </trkpt>
      <trkpt lat="45.79233" lon="2.97746">
        <ele>1021.313427717</ele>
        <time>2019-04-28T09:23:36Z</time>
      </trkpt>
      <trkpt lat="45.79237" lon="2.97759">
        <ele>1021.171822999</ele>
        <time>2019-04-28T09:23:45Z</time>
      </trkpt>
      <trkpt lat="45.79246" lon="2.97766">
        <ele>1020.963023711</ele>
        <time>2019-04-28T09:23:55Z</time>
      </trkpt>
      <trkpt lat="45.79253" lon="2.97768">
        <ele>1020.7538964608</ele>
        <time>2019-04-28T09:24:04Z</time>
      </trkpt>
      <trkpt lat="45.79259" lon="2.97771">
        <ele>1020.5215858615</ele>
        <time>2019-04-28T09:24:13Z</time>
      </trkpt>
      <trkpt lat="45.7926" lon="2.9777">
        <ele>1020.4972932738</ele>
        <time>2019-04-28T09:24:21Z</time>
      </trkpt>
      <trkpt lat="45.7926" lon="2.9777">
        <ele>1020.2812445853</ele>
        <time>2019-04-28T09:25:04Z</time>
      </trkpt>
      <trkpt lat="45.79261" lon="2.9777">
        <ele>1019.629796283</ele>
        <time>2019-04-28T09:26:29Z</time>
      </trkpt>
      <trkpt lat="45.79261" lon="2.97771">
        <ele>1019.4897226272</ele>
        <time>2019-04-28T09:26:40Z</time>
      </trkpt>
      <trkpt lat="45.79262" lon="2.97774">
        <ele>1019.3609174821</ele>
        <time>2019-04-28T09:26:49Z</time>
      </trkpt>
      <trkpt lat="45.79262" lon="2.97776">
        <ele>1019.2089604175</ele>
        <time>2019-04-28T09:26:58Z</time>
      </trkpt>
      <trkpt lat="45.79263" lon="2.97776">
        <ele>1019.0744843908</ele>
        <time>2019-04-28T09:27:11Z</time>
      </trkpt>
      <trkpt lat="45.79263" lon="2.97774">
        <ele>1018.7456759748</ele>
        <time>2019-04-28T09:27:21Z</time>
      </trkpt>
      <trkpt lat="45.79264" lon="2.97772">
        <ele>1018.447558714</ele>
        <time>2019-04-28T09:27:29Z</time>
      </trkpt>
      <trkpt lat="45.79264" lon="2.9777">
        <ele>1018.0599879257</ele>
        <time>2019-04-28T09:27:38Z</time>
      </trkpt>
      <trkpt lat="45.79265" lon="2.97765">
        <ele>1017.3075312478</ele>
        <time>2019-04-28T09:27:47Z</time>
      </trkpt>
      <trkpt lat="45.79271" lon="2.9778">
        <ele>1016.6288500687</ele>
        <time>2019-04-28T09:27:56Z</time>
      </trkpt>
      <trkpt lat="45.79277" lon="2.97789">
        <ele>1016.0954852478</ele>
        <time>2019-04-28T09:28:05Z</time>
      </trkpt>
      <trkpt lat="45.79282" lon="2.978">
        <ele>1015.7201711169</ele>
        <time>2019-04-28T09:28:13Z</time>
      </trkpt>
      <trkpt lat="45.79291" lon="2.97807">
        <ele>1015.3467023478</ele>
        <time>2019-04-28T09:28:23Z</time>
      </trkpt>
      <trkpt lat="45.793" lon="2.97817">
        <ele>1015.044803091</ele>
        <time>2019-04-28T09:28:33Z</time>
      </trkpt>
      <trkpt lat="45.79309" lon="2.97825">
        <ele>1014.8244320628</ele>
        <time>2019-04-28T09:28:42Z</time>
      </trkpt>
      <trkpt lat="45.79312" lon="2.97829">
        <ele>1014.6416397874</ele>
        <time>2019-04-28T09:28:50Z</time>
      </trkpt>
      <trkpt lat="45.79321" lon="2.97841">
        <ele>1014.4223254333</ele>
        <time>2019-04-28T09:29:00Z</time>
      </trkpt>
      <trkpt lat="45.79328" lon="2.97852">
        <ele>1014.2589141956</ele>
        <time>2019-04-28T09:29:08Z</time>
      </trkpt>
      <trkpt lat="45.79336" lon="2.97859">
        <ele>1014.0867665649</ele>
        <time>2019-04-28T09:29:17Z</time>
      </trkpt>
      <trkpt lat="45.79342" lon="2.97867">
        <ele>1013.9125952282</ele>
        <time>2019-04-28T09:29:26Z</time>
      </trkpt>
      <trkpt lat="45.79346" lon="2.97873">
        <ele>1013.75216048</ele>
        <time>2019-04-28T09:29:34Z</time>
      </trkpt>
      <trkpt lat="45.79351" lon="2.97886">
        <ele>1013.5494327506</ele>
        <time>2019-04-28T09:29:44Z</time>
      </trkpt>
      <trkpt lat="45.79358" lon="2.97901">
        <ele>1013.4011595515</ele>
        <time>2019-04-28T09:29:52Z</time>
      </trkpt>
      <trkpt lat="45.79363" lon="2.97917">
        <ele>1013.2276117349</ele>
        <time>2019-04-28T09:30:01Z</time>
      </trkpt>
      <trkpt lat="45.79363" lon="2.97935">
        <ele>1013.0359513486</ele>
        <time>2019-04-28T09:30:11Z</time>
      </trkpt>
      <trkpt lat="45.79366" lon="2.97947">
        <ele>1012.8767384863</ele>
        <time>2019-04-28T09:30:20Z</time>
      </trkpt>
      <trkpt lat="45.79375" lon="2.97957">
        <ele>1012.6747463252</ele>
        <time>2019-04-28T09:30:29Z</time>
      </trkpt>
      <trkpt lat="45.79383" lon="2.97964">
        <ele>1012.508028366</ele>
        <time>2019-04-28T09:30:37Z</time>
      </trkpt>
      <trkpt lat="45.79397" lon="2.97972">
        <ele>1012.3227295851</ele>
        <time>2019-04-28T09:30:46Z</time>
      </trkpt>
      <trkpt lat="45.79407" lon="2.97986">
        <ele>1012.1538481172</ele>
        <time>2019-04-28T09:30:55Z</time>
      </trkpt>
      <trkpt lat="45.79412" lon="2.97992">
        <ele>1012.0195708943</ele>
        <time>2019-04-28T09:31:04Z</time>
      </trkpt>
      <trkpt lat="45.79422" lon="2.98006">
        <ele>1011.8331859113</ele>
        <time>2019-04-28T09:31:14Z</time>
      </trkpt>
      <trkpt lat="45.79426" lon="2.98018">
        <ele>1011.6546743687</ele>
        <time>2019-04-28T09:31:24Z</time>
      </trkpt>
      <trkpt lat="45.79428" lon="2.98036">
        <ele>1011.5219331065</ele>
        <time>2019-04-28T09:31:32Z</time>
      </trkpt>
      <trkpt lat="45.79434" lon="2.98049">
        <ele>1011.3418601091</ele>
        <time>2019-04-28T09:31:42Z</time>
      </trkpt>
      <trkpt lat="45.7944" lon="2.98057">
        <ele>1011.1879244403</ele>
        <time>2019-04-28T09:31:50Z</time>
      </trkpt>
      <trkpt lat="45.79444" lon="2.98067">
        <ele>1011.0077967292</ele>
        <time>2019-04-28T09:31:59Z</time>
      </trkpt>
      <trkpt lat="45.79448" lon="2.98079">
        <ele>1010.8280050637</ele>
        <time>2019-04-28T09:32:08Z</time>
      </trkpt>
      <trkpt lat="45.79451" lon="2.98091">
        <ele>1010.6636891109</ele>
        <time>2019-04-28T09:32:18Z</time>
      </trkpt>
      <trkpt lat="45.79454" lon="2.98101">
        <ele>1010.4927931856</ele>
        <time>2019-04-28T09:32:28Z</time>
      </trkpt>
      <trkpt lat="45.79459" lon="2.98113">
        <ele>1010.3351359545</ele>
        <time>2019-04-28T09:32:37Z</time>
      </trkpt>
      <trkpt lat="45.79464" lon="2.98123">
        <ele>1010.1451174774</ele>
        <time>2019-04-28T09:32:46Z</time>
      </trkpt>
      <trkpt lat="45.79472" lon="2.98136">
        <ele>1009.9593174382</ele>
        <time>2019-04-28T09:32:54Z</time>
      </trkpt>
      <trkpt lat="45.79481" lon="2.98143">
        <ele>1009.7541583425</ele>
        <time>2019-04-28T09:33:03Z</time>
      </trkpt>
      <trkpt lat="45.79487" lon="2.98151">
        <ele>1009.5604394702</ele>
        <time>2019-04-28T09:33:12Z</time>
      </trkpt>
      <trkpt lat="45.79495" lon="2.98159">
        <ele>1009.3686662881</ele>
        <time>2019-04-28T09:33:21Z</time>
      </trkpt>
      <trkpt lat="45.79506" lon="2.98175">
        <ele>1009.160882576</ele>
        <time>2019-04-28T09:33:31Z</time>
      </trkpt>
      <trkpt lat="45.79515" lon="2.98185">
        <ele>1008.9570188301</ele>
        <time>2019-04-28T09:33:41Z</time>
      </trkpt>
      <trkpt lat="45.79527" lon="2.98189">
        <ele>1008.7659123487</ele>
        <time>2019-04-28T09:33:50Z</time>
      </trkpt>
      <trkpt lat="45.79538" lon="2.98196">
        <ele>1008.5936262801</ele>
        <time>2019-04-28T09:33:58Z</time>
      </trkpt>
      <trkpt lat="45.79549" lon="2.98203">
        <ele>1008.4031676505</ele>
        <time>2019-04-28T09:34:07Z</time>
      </trkpt>
      <trkpt lat="45.79565" lon="2.98208">
        <ele>1008.2066828618</ele>
        <time>2019-04-28T09:34:17Z</time>
      </trkpt>
      <trkpt lat="45.79572" lon="2.98216">
        <ele>1008.0242963032</ele>
        <time>2019-04-28T09:34:26Z</time>
      </trkpt>
      <trkpt lat="45.7958" lon="2.98224">
        <ele>1007.8434948156</ele>
        <time>2019-04-28T09:34:36Z</time>
      </trkpt>
      <trkpt lat="45.79588" lon="2.98236">
        <ele>1007.6562872241</ele>
        <time>2019-04-28T09:34:46Z</time>
      </trkpt>
      <trkpt lat="45.79597" lon="2.98249">
        <ele>1007.5002165093</ele>
        <time>2019-04-28T09:34:56Z</time>
      </trkpt>
      <trkpt lat="45.79605" lon="2.98262">
        <ele>1007.3674319518</ele>
        <time>2019-04-28T09:35:06Z</time>
      </trkpt>
      <trkpt lat="45.79609" lon="2.9827">
        <ele>1007.2624055253</ele>
        <time>2019-04-28T09:35:14Z</time>
      </trkpt>
      <trkpt lat="45.79613" lon="2.98275">
        <ele>1007.1483886787</ele>
        <time>2019-04-28T09:35:23Z</time>
      </trkpt>
      <trkpt lat="45.79622" lon="2.98281">
        <ele>1007.029069087</ele>
        <time>2019-04-28T09:35:32Z</time>
      </trkpt>
      <trkpt lat="45.79631" lon="2.98288">
        <ele>1006.9070131943</ele>
        <time>2019-04-28T09:35:41Z</time>
      </trkpt>
      <trkpt lat="45.79637" lon="2.98288">
        <ele>1006.7750299029</ele>
        <time>2019-04-28T09:35:50Z</time>
      </trkpt>
      <trkpt lat="45.79644" lon="2.98289">
        <ele>1006.6640964705</ele>
        <time>2019-04-28T09:35:58Z</time>
      </trkpt>
      <trkpt lat="45.79659" lon="2.98292">
        <ele>1006.5414136534</ele>
        <time>2019-04-28T09:36:07Z</time>
      </trkpt>
      <trkpt lat="45.79671" lon="2.98292">
        <ele>1006.3913446145</ele>
        <time>2019-04-28T09:36:16Z</time>
      </trkpt>
      <trkpt lat="45.79683" lon="2.98286">
        <ele>1006.234084873</ele>
        <time>2019-04-28T09:36:26Z</time>
      </trkpt>
      <trkpt lat="45.79692" lon="2.98283">
        <ele>1006.0959800726</ele>
        <time>2019-04-28T09:36:35Z</time>
      </trkpt>
      <trkpt lat="45.79699" lon="2.98283">
        <ele>1005.9429176785</ele>
        <time>2019-04-28T09:36:45Z</time>
      </trkpt>
      <trkpt lat="45.79702" lon="2.98286">
        <ele>1005.8942558038</ele>
        <time>2019-04-28T09:36:54Z</time>
      </trkpt>
      <trkpt lat="45.79705" lon="2.98288">
        <ele>1005.7400174944</ele>
        <time>2019-04-28T09:37:04Z</time>
      </trkpt>
      <trkpt lat="45.79713" lon="2.98289">
        <ele>1005.5399230535</ele>
        <time>2019-04-28T09:37:14Z</time>
      </trkpt>
      <trkpt lat="45.79722" lon="2.98291">
        <ele>1005.3335451896</ele>
        <time>2019-04-28T09:37:23Z</time>
      </trkpt>
      <trkpt lat="45.79734" lon="2.983">
        <ele>1005.1248413333</ele>
        <time>2019-04-28T09:37:32Z</time>
      </trkpt>
      <trkpt lat="45.79742" lon="2.98309">
        <ele>1004.8923866076</ele>
        <time>2019-04-28T09:37:42Z</time>
      </trkpt>
      <trkpt lat="45.79751" lon="2.9831">
        <ele>1004.6998461889</ele>
        <time>2019-04-28T09:37:50Z</time>
      </trkpt>
      <trkpt lat="45.79762" lon="2.98312">
        <ele>1004.4530061094</ele>
        <time>2019-04-28T09:38:00Z</time>
      </trkpt>
      <trkpt lat="45.79773" lon="2.98314">
        <ele>1004.2347000001</ele>
        <time>2019-04-28T09:38:09Z</time>
      </trkpt>
      <trkpt lat="45.79789" lon="2.98317">
        <ele>1003.9695274516</ele>
        <time>2019-04-28T09:38:19Z</time>
      </trkpt>
      <trkpt lat="45.7979" lon="2.9832">
        <ele>1003.7942479422</ele>
        <time>2019-04-28T09:38:27Z</time>
      </trkpt>
      <trkpt lat="45.79792" lon="2.98323">
        <ele>1003.5541752822</ele>
        <time>2019-04-28T09:38:35Z</time>
      </trkpt>
      <trkpt lat="45.79795" lon="2.98325">
        <ele>1003.4297573215</ele>
        <time>2019-04-28T09:38:44Z</time>
      </trkpt>
      <trkpt lat="45.79795" lon="2.98326">
        <ele>1003.3925098331</ele>
        <time>2019-04-28T09:38:57Z</time>
      </trkpt>
      <trkpt lat="45.79796" lon="2.98326">
        <ele>1003.3404457</ele>
        <time>2019-04-28T09:39:13Z</time>
      </trkpt>
      <trkpt lat="45.79797" lon="2.98326">
        <ele>1003.267488524</ele>
        <time>2019-04-28T09:39:24Z</time>
      </trkpt>
      <trkpt lat="45.79797" lon="2.98326">
        <ele>1003.1912569484</ele>
        <time>2019-04-28T09:39:42Z</time>
      </trkpt>
      <trkpt lat="45.79798" lon="2.98325">
        <ele>1003.133597318</ele>
        <time>2019-04-28T09:39:54Z</time>
      </trkpt>
      <trkpt lat="45.79798" lon="2.98324">
        <ele>1003.0759375905</ele>
        <time>2019-04-28T09:40:04Z</time>
      </trkpt>
      <trkpt lat="45.79796" lon="2.98323">
        <ele>1002.8530030171</ele>
        <time>2019-04-28T09:40:13Z</time>
      </trkpt>
      <trkpt lat="45.79797" lon="2.98324">
        <ele>1002.4970424398</ele>
        <time>2019-04-28T09:40:37Z</time>
      </trkpt>
      <trkpt lat="45.79798" lon="2.98326">
        <ele>1002.1882184103</ele>
        <time>2019-04-28T09:40:46Z</time>
      </trkpt>
      <trkpt lat="45.79799" lon="2.98327">
        <ele>1001.8945147727</ele>
        <time>2019-04-28T09:40:55Z</time>
      </trkpt>
      <trkpt lat="45.79805" lon="2.98336">
        <ele>1001.3721934603</ele>
        <time>2019-04-28T09:41:04Z</time>
      </trkpt>
      <trkpt lat="45.79814" lon="2.98343">
        <ele>1000.9278912182</ele>
        <time>2019-04-28T09:41:13Z</time>
      </trkpt>
      <trkpt lat="45.79823" lon="2.98348">
        <ele>1000.5116049019</ele>
        <time>2019-04-28T09:41:23Z</time>
      </trkpt>
      <trkpt lat="45.79837" lon="2.9835">
        <ele>1000.1591791393</ele>
        <time>2019-04-28T09:41:32Z</time>
      </trkpt>
      <trkpt lat="45.79844" lon="2.98353">
        <ele>999.8320574442</ele>
        <time>2019-04-28T09:41:41Z</time>
      </trkpt>
      <trkpt lat="45.79848" lon="2.9835">
        <ele>999.5693168417</ele>
        <time>2019-04-28T09:41:51Z</time>
      </trkpt>
      <trkpt lat="45.79847" lon="2.98349">
        <ele>999.43522756061</ele>
        <time>2019-04-28T09:42:06Z</time>
      </trkpt>
      <trkpt lat="45.79846" lon="2.98349">
        <ele>999.21725759998</ele>
        <time>2019-04-28T09:42:15Z</time>
      </trkpt>
      <trkpt lat="45.79846" lon="2.98349">
        <ele>998.98104926325</ele>
        <time>2019-04-28T09:42:25Z</time>
      </trkpt>
      <trkpt lat="45.79851" lon="2.98352">
        <ele>998.65005485078</ele>
        <time>2019-04-28T09:42:34Z</time>
      </trkpt>
      <trkpt lat="45.79855" lon="2.98357">
        <ele>998.38112181743</ele>
        <time>2019-04-28T09:42:42Z</time>
      </trkpt>
      <trkpt lat="45.79858" lon="2.9836">
        <ele>998.06695724443</ele>
        <time>2019-04-28T09:42:52Z</time>
      </trkpt>
      <trkpt lat="45.79867" lon="2.98364">
        <ele>997.75055532708</ele>
        <time>2019-04-28T09:43:02Z</time>
      </trkpt>
      <trkpt lat="45.79879" lon="2.98364">
        <ele>997.49131777014</ele>
        <time>2019-04-28T09:43:11Z</time>
      </trkpt>
      <trkpt lat="45.79888" lon="2.98367">
        <ele>997.30148636353</ele>
        <time>2019-04-28T09:43:19Z</time>
      </trkpt>
      <trkpt lat="45.79902" lon="2.98365">
        <ele>997.09670239675</ele>
        <time>2019-04-28T09:43:29Z</time>
      </trkpt>
      <trkpt lat="45.79907" lon="2.98361">
        <ele>996.92611312222</ele>
        <time>2019-04-28T09:43:37Z</time>
      </trkpt>
      <trkpt lat="45.79921" lon="2.98359">
        <ele>996.67461959304</ele>
        <time>2019-04-28T09:43:46Z</time>
      </trkpt>
      <trkpt lat="45.7994" lon="2.98362">
        <ele>996.39819046239</ele>
        <time>2019-04-28T09:43:56Z</time>
      </trkpt>
      <trkpt lat="45.79954" lon="2.98363">
        <ele>996.16868982377</ele>
        <time>2019-04-28T09:44:05Z</time>
      </trkpt>
      <trkpt lat="45.79967" lon="2.98362">
        <ele>995.94821917764</ele>
        <time>2019-04-28T09:44:14Z</time>
      </trkpt>
      <trkpt lat="45.79977" lon="2.98359">
        <ele>995.69901015639</ele>
        <time>2019-04-28T09:44:24Z</time>
      </trkpt>
      <trkpt lat="45.79991" lon="2.98365">
        <ele>995.45859027011</ele>
        <time>2019-04-28T09:44:34Z</time>
      </trkpt>
      <trkpt lat="45.8" lon="2.98371">
        <ele>995.28132189587</ele>
        <time>2019-04-28T09:44:42Z</time>
      </trkpt>
      <trkpt lat="45.80009" lon="2.98376">
        <ele>995.08196458747</ele>
        <time>2019-04-28T09:44:51Z</time>
      </trkpt>
      <trkpt lat="45.8002" lon="2.98383">
        <ele>994.8957786092</ele>
        <time>2019-04-28T09:45:00Z</time>
      </trkpt>
      <trkpt lat="45.80028" lon="2.98389">
        <ele>994.74027341287</ele>
        <time>2019-04-28T09:45:08Z</time>
      </trkpt>
      <trkpt lat="45.80038" lon="2.98393">
        <ele>994.57322996346</ele>
        <time>2019-04-28T09:45:17Z</time>
      </trkpt>
      <trkpt lat="45.80053" lon="2.98396">
        <ele>994.41688143542</ele>
        <time>2019-04-28T09:45:26Z</time>
      </trkpt>
      <trkpt lat="45.80061" lon="2.98398">
        <ele>994.29800523111</ele>
        <time>2019-04-28T09:45:34Z</time>
      </trkpt>
      <trkpt lat="45.8007" lon="2.98397">
        <ele>994.16888809608</ele>
        <time>2019-04-28T09:45:44Z</time>
      </trkpt>
      <trkpt lat="45.80074" lon="2.98398">
        <ele>994.07324644534</ele>
        <time>2019-04-28T09:45:52Z</time>
      </trkpt>
      <trkpt lat="45.80089" lon="2.98401">
        <ele>993.94191362146</ele>
        <time>2019-04-28T09:46:02Z</time>
      </trkpt>
      <trkpt lat="45.80102" lon="2.98401">
        <ele>993.7518350265</ele>
        <time>2019-04-28T09:46:11Z</time>
      </trkpt>
      <trkpt lat="45.80109" lon="2.98398">
        <ele>993.52659610603</ele>
        <time>2019-04-28T09:46:20Z</time>
      </trkpt>
      <trkpt lat="45.80121" lon="2.98399">
        <ele>993.25977704954</ele>
        <time>2019-04-28T09:46:30Z</time>
      </trkpt>
      <trkpt lat="45.80134" lon="2.98401">
        <ele>993.02522194208</ele>
        <time>2019-04-28T09:46:39Z</time>
      </trkpt>
      <trkpt lat="45.80138" lon="2.98401">
        <ele>992.8948062407</ele>
        <time>2019-04-28T09:46:47Z</time>
      </trkpt>
      <trkpt lat="45.80143" lon="2.984">
        <ele>992.70534855935</ele>
        <time>2019-04-28T09:46:57Z</time>
      </trkpt>
      <trkpt lat="45.80148" lon="2.98398">
        <ele>992.49007128762</ele>
        <time>2019-04-28T09:47:06Z</time>
      </trkpt>
      <trkpt lat="45.80153" lon="2.98399">
        <ele>992.34868629529</ele>
        <time>2019-04-28T09:47:14Z</time>
      </trkpt>
      <trkpt lat="45.80154" lon="2.98399">
        <ele>992.26048797172</ele>
        <time>2019-04-28T09:47:26Z</time>
      </trkpt>
      <trkpt lat="45.80155" lon="2.984">
        <ele>992.14215652565</ele>
        <time>2019-04-28T09:47:35Z</time>
      </trkpt>
      <trkpt lat="45.80158" lon="2.98401">
        <ele>992.04242413624</ele>
        <time>2019-04-28T09:47:44Z</time>
      </trkpt>
      <trkpt lat="45.80164" lon="2.98404">
        <ele>991.94060778471</ele>
        <time>2019-04-28T09:47:54Z</time>
      </trkpt>
      <trkpt lat="45.80175" lon="2.98411">
        <ele>991.6696477784</ele>
        <time>2019-04-28T09:48:03Z</time>
      </trkpt>
      <trkpt lat="45.80198" lon="2.98424">
        <ele>991.41505490233</ele>
        <time>2019-04-28T09:48:12Z</time>
      </trkpt>
      <trkpt lat="45.8021" lon="2.98432">
        <ele>991.18019546351</ele>
        <time>2019-04-28T09:48:22Z</time>
      </trkpt>
      <trkpt lat="45.80218" lon="2.98444">
        <ele>990.98271525429</ele>
        <time>2019-04-28T09:48:31Z</time>
      </trkpt>
      <trkpt lat="45.80226" lon="2.98456">
        <ele>990.78490053166</ele>
        <time>2019-04-28T09:48:40Z</time>
      </trkpt>
      <trkpt lat="45.80236" lon="2.98468">
        <ele>990.56479477883</ele>
        <time>2019-04-28T09:48:50Z</time>
      </trkpt>
      <trkpt lat="45.80243" lon="2.98472">
        <ele>990.38705029354</ele>
        <time>2019-04-28T09:48:59Z</time>
      </trkpt>
      <trkpt lat="45.80251" lon="2.98474">
        <ele>990.23427687659</ele>
        <time>2019-04-28T09:49:08Z</time>
      </trkpt>
      <trkpt lat="45.80264" lon="2.9848">
        <ele>990.0958201873</ele>
        <time>2019-04-28T09:49:17Z</time>
      </trkpt>
      <trkpt lat="45.80282" lon="2.98475">
        <ele>989.95556982837</ele>
        <time>2019-04-28T09:49:27Z</time>
      </trkpt>
      <trkpt lat="45.80296" lon="2.98478">
        <ele>989.84220164775</ele>
        <time>2019-04-28T09:49:37Z</time>
      </trkpt>
      <trkpt lat="45.80301" lon="2.98483">
        <ele>989.79219193528</ele>
        <time>2019-04-28T09:49:46Z</time>
      </trkpt>
      <trkpt lat="45.80303" lon="2.98484">
        <ele>989.78214163127</ele>
        <time>2019-04-28T09:49:54Z</time>
      </trkpt>
      <trkpt lat="45.80304" lon="2.98485">
        <ele>989.77653917622</ele>
        <time>2019-04-28T09:50:04Z</time>
      </trkpt>
      <trkpt lat="45.80304" lon="2.98486">
        <ele>989.76939239506</ele>
        <time>2019-04-28T09:50:12Z</time>
      </trkpt>
      <trkpt lat="45.80305" lon="2.98488">
        <ele>989.76742388852</ele>
        <time>2019-04-28T09:50:28Z</time>
      </trkpt>
      <trkpt lat="45.80305" lon="2.98489">
        <ele>989.77016820476</ele>
        <time>2019-04-28T09:50:40Z</time>
      </trkpt>
      <trkpt lat="45.80304" lon="2.98491">
        <ele>989.76971855463</ele>
        <time>2019-04-28T09:50:48Z</time>
      </trkpt>
      <trkpt lat="45.80303" lon="2.98492">
        <ele>989.7667492864</ele>
        <time>2019-04-28T09:50:58Z</time>
      </trkpt>
      <trkpt lat="45.80302" lon="2.98492">
        <ele>989.76563053043</ele>
        <time>2019-04-28T09:51:07Z</time>
      </trkpt>
      <trkpt lat="45.80302" lon="2.98494">
        <ele>989.76189022012</ele>
        <time>2019-04-28T09:51:24Z</time>
      </trkpt>
      <trkpt lat="45.80303" lon="2.98495">
        <ele>989.75350858644</ele>
        <time>2019-04-28T09:52:11Z</time>
      </trkpt>
      <trkpt lat="45.80303" lon="2.98496">
        <ele>989.73726019248</ele>
        <time>2019-04-28T09:52:34Z</time>
      </trkpt>
      <trkpt lat="45.80303" lon="2.98497">
        <ele>989.69688879303</ele>
        <time>2019-04-28T09:52:45Z</time>
      </trkpt>
      <trkpt lat="45.80302" lon="2.98499">
        <ele>989.63039984235</ele>
        <time>2019-04-28T09:52:53Z</time>
      </trkpt>
      <trkpt lat="45.80303" lon="2.985">
        <ele>989.59268050058</ele>
        <time>2019-04-28T09:53:04Z</time>
      </trkpt>
      <trkpt lat="45.80303" lon="2.98502">
        <ele>989.56498154932</ele>
        <time>2019-04-28T09:53:12Z</time>
      </trkpt>
      <trkpt lat="45.80305" lon="2.98504">
        <ele>989.51785572607</ele>
        <time>2019-04-28T09:53:21Z</time>
      </trkpt>
      <trkpt lat="45.80313" lon="2.98507">
        <ele>989.42144477521</ele>
        <time>2019-04-28T09:53:30Z</time>
      </trkpt>
      <trkpt lat="45.80324" lon="2.98509">
        <ele>989.28046134846</ele>
        <time>2019-04-28T09:53:39Z</time>
      </trkpt>
      <trkpt lat="45.80336" lon="2.98512">
        <ele>989.13517398556</ele>
        <time>2019-04-28T09:53:48Z</time>
      </trkpt>
      <trkpt lat="45.80342" lon="2.98517">
        <ele>989.00353904905</ele>
        <time>2019-04-28T09:53:57Z</time>
      </trkpt>
      <trkpt lat="45.80344" lon="2.9852">
        <ele>988.9688972679</ele>
        <time>2019-04-28T09:54:05Z</time>
      </trkpt>
      <trkpt lat="45.80344" lon="2.98521">
        <ele>988.95268275998</ele>
        <time>2019-04-28T09:54:16Z</time>
      </trkpt>
      <trkpt lat="45.80348" lon="2.98528">
        <ele>988.82175199041</ele>
        <time>2019-04-28T09:54:26Z</time>
      </trkpt>
      <trkpt lat="45.8035" lon="2.98543">
        <ele>988.69372212574</ele>
        <time>2019-04-28T09:54:34Z</time>
      </trkpt>
      <trkpt lat="45.80349" lon="2.98553">
        <ele>988.58410436377</ele>
        <time>2019-04-28T09:54:42Z</time>
      </trkpt>
      <trkpt lat="45.80346" lon="2.98562">
        <ele>988.47665646707</ele>
        <time>2019-04-28T09:54:51Z</time>
      </trkpt>
      <trkpt lat="45.80339" lon="2.9858">
        <ele>988.33076851684</ele>
        <time>2019-04-28T09:55:00Z</time>
      </trkpt>
      <trkpt lat="45.80333" lon="2.98598">
        <ele>988.16544022418</ele>
        <time>2019-04-28T09:55:10Z</time>
      </trkpt>
      <trkpt lat="45.80332" lon="2.98615">
        <ele>988.01983979118</ele>
        <time>2019-04-28T09:55:19Z</time>
      </trkpt>
      <trkpt lat="45.80333" lon="2.98625">
        <ele>987.89739366779</ele>
        <time>2019-04-28T09:55:28Z</time>
      </trkpt>
      <trkpt lat="45.80333" lon="2.98627">
        <ele>987.88631395749</ele>
        <time>2019-04-28T09:55:37Z</time>
      </trkpt>
      <trkpt lat="45.80333" lon="2.98628">
        <ele>987.83238271981</ele>
        <time>2019-04-28T09:55:56Z</time>
      </trkpt>
      <trkpt lat="45.80332" lon="2.9863">
        <ele>987.74857822235</ele>
        <time>2019-04-28T09:56:05Z</time>
      </trkpt>
      <trkpt lat="45.80329" lon="2.9864">
        <ele>987.61352086946</ele>
        <time>2019-04-28T09:56:13Z</time>
      </trkpt>
      <trkpt lat="45.80331" lon="2.98648">
        <ele>987.31807767381</ele>
        <time>2019-04-28T09:56:21Z</time>
      </trkpt>
      <trkpt lat="45.80332" lon="2.98659">
        <ele>987.06576742786</ele>
        <time>2019-04-28T09:56:31Z</time>
      </trkpt>
      <trkpt lat="45.80333" lon="2.98662">
        <ele>987.02594063027</ele>
        <time>2019-04-28T09:56:41Z</time>
      </trkpt>
      <trkpt lat="45.80333" lon="2.9866">
        <ele>986.9444716516</ele>
        <time>2019-04-28T09:56:54Z</time>
      </trkpt>
      <trkpt lat="45.80334" lon="2.98659">
        <ele>986.87477916311</ele>
        <time>2019-04-28T09:57:04Z</time>
      </trkpt>
      <trkpt lat="45.80335" lon="2.98656">
        <ele>986.52226850455</ele>
        <time>2019-04-28T09:57:13Z</time>
      </trkpt>
      <trkpt lat="45.80335" lon="2.98641">
        <ele>986.10691938601</ele>
        <time>2019-04-28T09:57:23Z</time>
      </trkpt>
      <trkpt lat="45.80336" lon="2.98633">
        <ele>985.70917902443</ele>
        <time>2019-04-28T09:57:32Z</time>
      </trkpt>
      <trkpt lat="45.80339" lon="2.98632">
        <ele>985.43716425083</ele>
        <time>2019-04-28T09:57:41Z</time>
      </trkpt>
      <trkpt lat="45.80341" lon="2.98634">
        <ele>985.29776198833</ele>
        <time>2019-04-28T09:57:50Z</time>
      </trkpt>
      <trkpt lat="45.80345" lon="2.98648">
        <ele>985.01214857302</ele>
        <time>2019-04-28T09:57:59Z</time>
      </trkpt>
      <trkpt lat="45.80351" lon="2.98662">
        <ele>984.76837196853</ele>
        <time>2019-04-28T09:58:07Z</time>
      </trkpt>
      <trkpt lat="45.80356" lon="2.98675">
        <ele>984.55816066582</ele>
        <time>2019-04-28T09:58:15Z</time>
      </trkpt>
      <trkpt lat="45.80361" lon="2.98688">
        <ele>984.32197753368</ele>
        <time>2019-04-28T09:58:25Z</time>
      </trkpt>
      <trkpt lat="45.8037" lon="2.98697">
        <ele>984.1222109504</ele>
        <time>2019-04-28T09:58:34Z</time>
      </trkpt>
      <trkpt lat="45.8037" lon="2.98697">
        <ele>984.1222109504</ele>
        <time>2019-04-28T09:58:34Z</time>
      </trkpt>
    </trkseg>
  </trk>
</gpx>